Doletová listina

Místo vypuštění Slavkov Golf II.
Vzdálenost 68.326 km
Datum a čas startu 04.09.2019 08:00:00
Počasí v místě startu Jasno, klidno, 14C.
Počasí v cíli Jasno, klidno, 15C.
Počet nasazených holubů 1064
Počet chovatelů 281

         
    LC Jméno chovatele Jméno holuba Čas doletu Rychlost Doba letu
1 CZ EM-EKO.CZ Aronde 08:48:54.04 1397.241 00:48:54.04
2 AT SG NUTZ & KAHR Rabiatperlen Secret 08:48:57.53 1395.581 00:48:57.53
3 DE NAKOTT Ludwig Big Jan 08:49:06.68 1391.247 00:49:06.68
4 CZ LAŇKA Alfons Ing. Kristina 08:49:08.67 1390.308 00:49:08.67
5 CZ ATH Květná Bob 08:49:09.37 1389.978 00:49:09.37
6 CZ DUDA Rostislav Athéna 08:49:11.80 1388.834 00:49:11.80
7 CN CELINE SUN & SKRBEK MAREK "A" Silver Birch II. 08:49:12.25 1388.622 00:49:12.25
8 CZ ACADEMY LOFT Štěpánek Akademie Libchavy "B" Kittel Lincia 4076 08:49:12.72 1388.401 00:49:12.72
9 DE HÖRNIG Rainer HR 92 08:49:14.02 1387.790 00:49:14.02
10 DE SG MEISSNER & SCHEURER Claudia. 08:49:15.13 1387.269 00:49:15.13
11 DE NAKOTT Ludwig Sternberg Hope 08:49:16.54 1386.607 00:49:16.54
12 SK MAJDÁK Michal Citrin 08:49:17.99 1385.928 00:49:17.99
13 CZ NEW VES - PSV EINDHOVEN Team Coni 08:49:18.29 1385.787 00:49:18.29
14 CZ MASNÝ - LAZOVÝ Team Georgia 08:49:18.58 1385.651 00:49:18.58
15 PL SEDLÁČEK & MISIAK TEAM Josef + Irek Eria 08:49:20.10 1384.940 00:49:20.10
16 DE HOOP Michael Hoodoo 08:49:20.43 1384.785 00:49:20.43
17 NL DOLDERSUM & Zn. Smicer 08:49:20.82 1384.603 00:49:20.82
18 CZ LUKÁŠ Jan Ondrejko 08:49:21.31 1384.374 00:49:21.31
19 CZ JANEČEK Petr Letec 08:49:22.23 1383.944 00:49:22.23
20 DE BÖHME & WITT TEAM Michael + Lutz Golden Bulck 08:49:22.35 1383.888 00:49:22.35
21 CZ NOVOTNÝ Jiří Ema 08:49:22.63 1383.757 00:49:22.63
22 NL DOLDERSUM & Zn. Cech. 08:49:22.70 1383.724 00:49:22.70
23 DE SCHÜTZE Jörn Gaziro 08:49:23.97 1383.131 00:49:23.97
24 CZ ŘEZNÍČEK & TOMEK Leónidás 08:49:24.28 1382.987 00:49:24.28
25 CZ VETPOL HOLEŠOV s.r.o. Emily. 08:49:24.29 1382.982 00:49:24.29
26 HU FÖLDING Norbert FN 048 08:49:24.77 1382.758 00:49:24.77
27 CZ PŘÍVARA Vladimír Aldy 08:49:25.06 1382.623 00:49:25.06
28 SK BLAŽENEC & VAŇO Itka 08:49:25.27 1382.525 00:49:25.27
29 DE WINGS 2 WIN Astro 48 08:49:25.52 1382.408 00:49:25.52
30 CZ M & M RACING Nikyterka 08:49:26.50 1381.952 00:49:26.50
31 CZ YOUNG FLYERS Senohrábek SP 200 08:49:26.78 1381.821 00:49:26.78
32 DE LECKE Theo & Markus Tyros 08:49:27.05 1381.696 00:49:27.05
33 CZ KRET Jiří Gama 08:49:27.52 1381.477 00:49:27.52
34 DE GOETZ Guenter GG 7 08:49:27.97 1381.267 00:49:27.97
35 DE RUPPRECHT RACING PIGEONS Team Tina* 08:49:28.27 1381.128 00:49:28.27
36 PL KOWAL R. & PABIŚ J. i M. Team Aga 08:49:28.56 1380.993 00:49:28.56
37 AT LEICHTFRIED Karin Tarani 08:49:28.73 1380.914 00:49:28.73
38 AT LEICHTFRIED Karin Pedro 08:49:28.91 1380.830 00:49:28.91
39 CZ ŠABATA Jan J.Š. 02 08:49:28.93 1380.821 00:49:28.93
40 CH WIRZ Team Vysocina 08:49:29.16 1380.714 00:49:29.16
41 CZ ZADRAŽILOVI M+P+M Rebel 08:49:29.22 1380.686 00:49:29.22
42 BE DECOENE MARC Team Lieveke 08:49:29.43 1380.588 00:49:29.43
43 PL KWASNICKI Tomasz Jolka 08:49:29.59 1380.514 00:49:29.59
44 DE TREPTE ARNDT & MARCUS Rödertalflieger Der rote Batzen 08:49:29.66 1380.481 00:49:29.66
45 IT GREG Mihai No Name Two 08:49:29.90 1380.370 00:49:29.90
46 NL PLOEG Bert Berber 08:49:30.27 1380.198 00:49:30.27
47 PL PALENTKA Janusz J 14 08:49:30.87 1379.919 00:49:30.87
48 DE HESSENBOYS TEAM One Loft Pigeon Racing Colin 08:49:31.37 1379.687 00:49:31.37
49 DE NO-WU Team NW 4 08:49:31.53 1379.613 00:49:31.53
50 CZ YOUNG FLYERS Senohrábek SP 197 08:49:31.73 1379.520 00:49:31.73
51 DE WILDECK Team WT 4 08:49:31.92 1379.431 00:49:31.92
52 CZ BARUNČIN KVĚTINOVÝ LOFT Štěpánek Akademie Libchavy Harry Afrika 94 08:49:32.02 1379.385 00:49:32.02
53 CZ KRATOCHVÍL Dušan Petr 6 08:49:32.22 1379.292 00:49:32.22
54 DE WITT Lutz LW 10 08:49:33.36 1378.763 00:49:33.36
55 TH TEAM DR.TEERACHON-TEC Thailand 924 08:49:33.76 1378.578 00:49:33.76
56 CZ KULÍK Přemysl Favorit. 08:49:34.12 1378.411 00:49:34.12
57 SK EVIN Peter + Noemi Peter 47 08:49:34.37 1378.295 00:49:34.37
58 CZ LAŇKA Alfons Ing. Vojta 08:49:34.50 1378.235 00:49:34.50
59 DE TARGATZ Angela Dr. Dr 9 08:49:34.57 1378.203 00:49:34.57
60 IT FAST PIGEONS & ERVIN LARO Larso 08:49:34.91 1378.045 00:49:34.91
61 AT EDER Gerhard Rambo 08:49:35.48 1377.781 00:49:35.48
62 CZ STRUŽKA Libor Mrsťa 08:49:35.80 1377.633 00:49:35.80
63 DE BEHLKE Andreas Darkness 08:49:35.90 1377.587 00:49:35.90
64 CZ GORCA TEAM Hela 08:49:35.93 1377.573 00:49:35.93
65 PL MAZIARZ RACING TEAM Aisha 08:49:36.40 1377.355 00:49:36.40
66 CZ CEZAVA a.s. BLUČINA Miroslav Ivan CE 7 08:49:36.89 1377.128 00:49:36.89
67 CZ KAREL TEAM John Deere 08:49:36.99 1377.082 00:49:36.99
68 SK HUSÁR & PONIŠTIAK Team Cavendish 08:49:37.14 1377.013 00:49:37.14
69 CZ ZEMAN & KAŠUBA ZK 5 08:49:37.73 1376.740 00:49:37.73
70 NL LOWLANDS RACING TEAM LRT 9 08:49:38.11 1376.564 00:49:38.11
71 CN CELINE SUN & SKRBEK MAREK "A" King of Talent 08:49:38.28 1376.486 00:49:38.28
72 DE FAMILIE SOELLNER F.S. 08 08:49:38.57 1376.352 00:49:38.57
73 TH TEAM DR.TEERACHON-TEC Thailand 368 08:49:38.69 1376.296 00:49:38.69
74 DE DEBUS Gerhard Berta. 08:49:39.05 1376.130 00:49:39.05
75 DE LECKE Theo & Markus Typhoo 08:49:39.25 1376.038 00:49:39.25
76 SK NOVÁK Matej Miško 08:49:39.27 1376.028 00:49:39.27
77 CZ MALACH Ladislav Kimi 08:49:39.58 1375.885 00:49:39.58
78 CZ YOUNG FLYERS Senohrábek SP 193 08:49:39.71 1375.825 00:49:39.71
79 DE SCHEPER Günter Giant 08:49:39.76 1375.802 00:49:39.76
80 SK BALVOŇ Michal Dada 08:49:39.98 1375.701 00:49:39.98
81 CZ TÁBORSKÝ Vladimír "B" Jarka T 08:49:40.24 1375.580 00:49:40.24
82 PL SEDLACEK Josef Turul 08:49:40.37 1375.520 00:49:40.37
83 CZ TÁBORSKÝ Vladimír "A" Radek 08:49:40.38 1375.516 00:49:40.38
84 DE TREPTE ARNDT & MARCUS Rödertalflieger Speedy 08:49:40.50 1375.460 00:49:40.50
85 CZ VLČEK Jiří Davidson 08:49:40.77 1375.336 00:49:40.77
86 CZ NEW VES - PSV EINDHOVEN Team Timi 08:49:41.09 1375.188 00:49:41.09
87 CH ALP RACE TEAM Simon Wolf Art 1 08:49:41.80 1374.861 00:49:41.80
88 CZ ACADEMY LOFT Štěpánek Akademie Libchavy Inbreed Afrika 71 08:49:41.99 1374.773 00:49:41.99
89 DE SG STEFFL Glatze 08:49:42.01 1374.764 00:49:42.01
90 SK PRIEHODA Ján a Ivana Pilotka 08:49:42.54 1374.520 00:49:42.54
91 BG SOFIA TEAM Sorbon 08:49:42.63 1374.478 00:49:42.63
92 CH ALP RACE TEAM Simon Wolf Art 10 08:49:42.83 1374.386 00:49:42.83
93 DE RÖHLIG & BUKOWSKI Team Pia 5 08:49:43.21 1374.211 00:49:43.21
94 IT CROCETTA Gabriele R 15 08:49:43.48 1374.087 00:49:43.48
95 CZ ECHTNER Antonín AR 3 08:49:43.69 1373.990 00:49:43.69
96 BE FLY-4-US Pollin & Denduyver Louis 08:49:43.88 1373.902 00:49:43.88
97 BE COPPENS Peter Willem 08:49:44.17 1373.769 00:49:44.17
98 CN CELINE SUN & SKRBEK MAREK "B" Maori Venture III. 08:49:44.35 1373.686 00:49:44.35
99 CZ HLAVINKA Josef Tina 08:49:44.66 1373.543 00:49:44.66
100 IT GREG Mihai No Name One 08:49:45.09 1373.346 00:49:45.09
101 CZ SVOBODA - ČIHÁK Team Ella. 08:49:45.22 1373.286 00:49:45.22
102 PL WÓJCIK Piotr Bond 08:49:45.40 1373.203 00:49:45.40
103 PL KOWAL R. & PABIŚ J. i M. Team Stach 08:49:45.46 1373.175 00:49:45.46
104 CZ ŘEZNÍČEK & TOMEK Saša 08:49:45.71 1373.060 00:49:45.71
105 DE LÜDTKE Andreas Dr. Luigi 08:49:45.87 1372.987 00:49:45.87
106 CZ ZADRAŽILOVI M+P+M Bojovník 08:49:45.89 1372.978 00:49:45.89
107 DE SASSE/WELZEL Team Scheik.- Meyera. 6 08:49:46.05 1372.904 00:49:46.05
108 FR FLAVIGNY M.S.L. Team Arazy Jallet 08:49:46.09 1372.886 00:49:46.09
109 CZ KOLÍNEK Jarolím st.+ ml. Antonia K 08:49:46.72 1372.596 00:49:46.72
110 CZ GORCA TEAM Zara. 08:49:46.94 1372.495 00:49:46.94
111 CZ BUREŠ Jaroslav Aurelius 08:49:47.17 1372.389 00:49:47.17
112 CZ TÁBORSKÝ Vladimír "A" Hanka 08:49:47.25 1372.352 00:49:47.25
113 HU FCI GRAND PRIX VÁC Vác 206 08:49:47.47 1372.251 00:49:47.47
114 DE JONAS und KONČAREVIČ Team Blende 08:49:47.62 1372.183 00:49:47.62
115 CZ VETPOL HOLEŠOV s.r.o. Clarabel 08:49:47.70 1372.146 00:49:47.70
116 SK NOVÁK Pavel Vladko 08:49:47.91 1372.049 00:49:47.91
117 DE WITT Lutz LW 1 08:49:48.08 1371.971 00:49:48.08
118 DE GOETZ Guenter GG 4 08:49:48.23 1371.902 00:49:48.23
119 DE WILDECK Team WT 5 08:49:48.38 1371.834 00:49:48.38
120 CH ANDERHUB Oskar Anchor 08:49:48.70 1371.687 00:49:48.70
121 SK LAŠ Vladimír Las 11 08:49:48.85 1371.618 00:49:48.85
122 SK FÁBRY MUDRONČEKOVÁ Adriána Dynkola 08:49:49.07 1371.517 00:49:49.07
123 CZ ŠABATA Jan J.Š. 11 08:49:49.16 1371.476 00:49:49.16
124 CZ BARÁNEK Josef Derby County 08:49:49.46 1371.338 00:49:49.46
125 CZ LAMÁČEK Josef & David La Nikola 08:49:49.63 1371.260 00:49:49.63
126 DE SG STEFFL King Ali 08:49:49.71 1371.223 00:49:49.71
127 CZ KOCIÁN Milan Jágr. 08:49:49.85 1371.159 00:49:49.85
128 CZ KONEČNÝ Vlastimil Portos 08:49:49.86 1371.155 00:49:49.86
129 PL KOWAL R. & PABIŚ J. i M. Team Pistolet 08:49:50.21 1370.994 00:49:50.21
130 CZ YOUNG FLYERS Senohrábek SP 194 08:49:51.26 1370.513 00:49:51.26
131 DE RUPPRECHT RACING PIGEONS Team Flore 08:49:51.37 1370.462 00:49:51.37
132 DE WITT Lutz LW 8 08:49:51.49 1370.407 00:49:51.49
133 CZ RUBEY TEAM Michal & Robert Ruby 1 08:49:51.66 1370.330 00:49:51.66
134 AT EDER Gerhard Bondgirl 08:49:51.81 1370.261 00:49:51.81
135 CZ KUBÁČEK Lubomír "B" Michalka 08:49:52.09 1370.133 00:49:52.09
136 CZ VÍTEK Jan Maty 08:49:52.16 1370.101 00:49:52.16
137 CH ALP RACE TEAM Simon Wolf Art 5 08:49:52.40 1369.991 00:49:52.40
138 CH ANDERHUB Oskar Angel 08:49:52.81 1369.803 00:49:52.81
139 NL EKEHAAR / TER APEL TEAM Olympic Laco 08:49:53.08 1369.679 00:49:53.08
140 DE DEBUS Gerhard Karl* 08:49:53.21 1369.620 00:49:53.21
141 BE VAN STICHEL Dirk Iron 08:49:53.34 1369.560 00:49:53.34
142 CZ KROUPA & NOVÁK Team Blue Star 08:49:53.79 1369.355 00:49:53.79
143 CH WIRZ Team Pardubice 08:49:53.94 1369.286 00:49:53.94
144 NL DOLDERSUM & Zn. Rosicky 08:49:54.11 1369.208 00:49:54.11
145 CZ TÁBORSKÝ Vladimír "B" Simy 08:49:54.35 1369.098 00:49:54.35
146 PL GALUS & KULESA TEAM Jan + Frantiszek Tomson 08:49:54.40 1369.076 00:49:54.40
147 NL CORVO Devi 08:49:54.75 1368.916 00:49:54.75
147 NL SIMONSZ Henk Princess 08:49:54.75 1368.916 00:49:54.75
149 CZ YOUNG STARS Maxim. 08:49:55.03 1368.788 00:49:55.03
150 CZ POSPÍŠIL Petr Mako 08:49:55.17 1368.724 00:49:55.17
151 CZ HLAVINKA Josef Kvído 08:49:55.62 1368.518 00:49:55.62
152 PL SEDLACEK Josef Tina. 08:49:55.88 1368.399 00:49:55.88
152 CZ PŘÍVARA Vladimír Jeny 08:49:55.88 1368.399 00:49:55.88
154 TH TEAM DR.TEERACHON-TEC Thailand 367 08:49:56.02 1368.335 00:49:56.02
155 DE WINGS 2 WIN Big Wing 57 08:49:56.23 1368.239 00:49:56.23
156 SK HUSÁR & PONIŠTIAK Team Froome 08:49:56.55 1368.093 00:49:56.55
157 NL CORVO Charlotte 08:49:57.06 1367.861 00:49:57.06
158 DE FAMILIE JOEKEL Galilei 08:49:57.19 1367.801 00:49:57.19
159 AT LEICHTFRIED Walter Frank. 08:49:57.37 1367.719 00:49:57.37
160 CZ YOUNG FLYERS Senohrábek SP 190 08:49:57.52 1367.651 00:49:57.52
161 AT GRATZER Werner Azzurro 08:49:57.89 1367.482 00:49:57.89
162 DE WITT Lutz LW 6 08:49:57.91 1367.473 00:49:57.91
163 CZ DVOŘÁK Zbyněk Vale 08:49:58.17 1367.354 00:49:58.17
164 CZ YOUNG STARS Maia 08:49:58.20 1367.340 00:49:58.20
165 SK LAŠ Vladimír Las 6 08:49:58.63 1367.144 00:49:58.63
166 NL CORVO Dominique 08:49:58.77 1367.081 00:49:58.77
167 SK HRNČIAR PETER & MIRO Team Jana. 08:49:58.86 1367.039 00:49:58.86
168 DE KUSSER Josef Quatro 2 08:49:59.07 1366.944 00:49:59.07
169 TH TEAM DR.TEERACHON-TEC Thailand 184 08:49:59.12 1366.921 00:49:59.12
170 SK GOGORA Milan Zugo 08:49:59.18 1366.894 00:49:59.18
171 CN CELINE SUN & SKRBEK MAREK "C" No Time 08:49:59.34 1366.821 00:49:59.34
172 DE FAMILIE JOEKEL Newton 08:49:59.41 1366.789 00:49:59.41
173 CZ HAŠŠO Slavomír Slavek 08:49:59.44 1366.775 00:49:59.44
174 DE NAMIBIA TEAM Andreas Lücke & Michael Hoop Nack 08:49:59.62 1366.693 00:49:59.62
175 CZ ŘEZNÍČEK & TOMEK Kitty 08:49:59.69 1366.661 00:49:59.69
176 CN CELINE SUN & SKRBEK MAREK "C" Alphabet II. 08:49:59.82 1366.602 00:49:59.82
177 CZ ŠABATA Jan J.Š. 10 08:49:59.83 1366.597 00:49:59.83
178 DE LECKE Theo & Markus Tynara 08:49:59.98 1366.529 00:49:59.98
179 CH ALP RACE TEAM Simon Wolf Art 3 08:50:00.01 1366.515 00:50:00.01
180 SK HRNČIAR PETER & MIRO Team Marta 08:50:00.04 1366.502 00:50:00.04
181 CZ CEZAVA a.s. BLUČINA Miroslav Ivan CE 1 08:50:00.62 1366.238 00:50:00.62
182 NL DOLDERSUM & Zn. Simak 08:50:00.87 1366.124 00:50:00.87
183 CZ ACADEMY LOFT Štěpánek Akademie Libchavy Bulk 72 08:50:01.15 1365.996 00:50:01.15
184 CZ KOLÍNEK Jarolím st.+ ml. Juraj K 08:50:01.32 1365.919 00:50:01.32
185 CZ GERSPITZER Team GT 6 08:50:01.59 1365.796 00:50:01.59
186 DE RUSSIN Christian Caro 08:50:01.76 1365.719 00:50:01.76
187 CZ GORCA TEAM Barny 08:50:01.85 1365.678 00:50:01.85
188 DE HOOP Michael Hooligan 08:50:03.10 1365.109 00:50:03.10
189 CN CELINE SUN & SKRBEK MAREK "A" Maybee 08:50:03.24 1365.046 00:50:03.24
190 CZ NOVOTNÝ Jiří Jura 08:50:03.84 1364.773 00:50:03.84
191 DE WEIS-JUNGEFLEISCH Team Little Heruv 36 08:50:03.99 1364.705 00:50:03.99
192 CZ BARUNČIN KVĚTINOVÝ LOFT Štěpánek Akademie Libchavy Kittel Lincia 98 08:50:04.14 1364.637 00:50:04.14
193 AT NÖRES Kurt Kuno 6 08:50:04.45 1364.496 00:50:04.45
194 CZ ŠTACH Vladimír Vlaš 5 08:50:04.57 1364.442 00:50:04.57
195 CN CELINE SUN & SKRBEK MAREK "A" My Tip III. 08:50:04.60 1364.428 00:50:04.60
196 CZ MARŠÁLEK Pavel Matyáš 08:50:04.89 1364.296 00:50:04.89
197 CZ CEZAVA a.s. BLUČINA Miroslav Ivan CE 2 08:50:05.03 1364.233 00:50:05.03
198 SK BODNÁR Ĺubo LB 1 08:50:05.05 1364.224 00:50:05.05
199 DE STOCKBAUER - LÜDERS Team Golden Amigo 08:50:05.30 1364.110 00:50:05.30
200 NL SIMONSZ Henk My Be Joi 08:50:05.57 1363.988 00:50:05.57
201 DE LASTERIE - MEIJER - BRANDT Team Blauer Star 08:50:05.94 1363.820 00:50:05.94
202 CZ ŘEZNÍČEK & TOMEK Kain 08:50:05.95 1363.815 00:50:05.95
203 SK FÁBRY MUDRONČEKOVÁ Adriána Adriana 08:50:06.08 1363.756 00:50:06.08
204 DE HUNTER TEAM Hunter 186 08:50:06.87 1363.398 00:50:06.87
205 AT STRAIF Walter Wallin 08:50:06.89 1363.389 00:50:06.89
206 CZ HLAVINKA Josef Jonáš 08:50:07.11 1363.289 00:50:07.11
207 CZ HNILIČKA - MACH - RACH Team Karel 08:50:07.26 1363.221 00:50:07.26
208 CZ TÁBORSKÝ Vladimír "A" Petra T 08:50:07.30 1363.203 00:50:07.30
209 CN CELINE SUN & SKRBEK MAREK "A" My Tip II. 08:50:07.49 1363.117 00:50:07.49
210 PL KOWAL R. & PABIŚ J. i M. Team Hanula 08:50:07.62 1363.058 00:50:07.62
211 AT GRATZER Werner Bridge of Dreams 08:50:07.70 1363.022 00:50:07.70
212 PL GALUS & KULESA TEAM Jan + Frantiszek Tina 1 08:50:07.97 1362.899 00:50:07.97
213 CZ VLČEK Jiří Miho 08:50:08.09 1362.845 00:50:08.09
214 DE TEAM LINDENHOF Schönrade Bodo Bodie 08:50:08.20 1362.795 00:50:08.20
215 DE SASSE/WELZEL Team Abacus 2 08:50:08.39 1362.709 00:50:08.39
216 CZ HLAVINKA Josef Biba 08:50:08.55 1362.636 00:50:08.55
217 CZ YOUNG STARS Maťánek 08:50:08.68 1362.578 00:50:08.68
218 SK TOMÁŠOVÁ Adela Tomas 5007 08:50:08.91 1362.473 00:50:08.91
219 ES WINKIE PIGEONS "B" Winkie 14 08:50:09.06 1362.406 00:50:09.06
220 NL CORVO Luca 08:50:09.21 1362.338 00:50:09.21
221 NO HELGESEN Bjorn Ove Kleine 244 08:50:09.82 1362.062 00:50:09.82
222 CZ KUBÁČEK Lubomír "C" Lada. 08:50:09.94 1362.007 00:50:09.94
223 CZ VLČEK Jiří Ramona 08:50:10.18 1361.899 00:50:10.18
224 CZ ŠABATA Jan J.Š. 06 08:50:10.41 1361.795 00:50:10.41
225 BE COPPENS Peter Eric 08:50:10.95 1361.550 00:50:10.95
226 CZ YOUNG STARS Raketa 08:50:11.17 1361.451 00:50:11.17
227 DE BÖHME & WITT TEAM Michael + Lutz Esperanza 08:50:11.23 1361.424 00:50:11.23
228 DE RUPPRECHT RACING PIGEONS Team "B" Romario 08:50:11.50 1361.302 00:50:11.50
229 CZ KROUPA & NOVÁK Team Blue 1014 08:50:11.79 1361.171 00:50:11.79
230 DE RUPPRECHT RACING PIGEONS Team Fyther 08:50:12.01 1361.071 00:50:12.01
231 DE DEBUS Gerhard Helene 08:50:12.15 1361.008 00:50:12.15
232 CZ JAVŮREK Miloš Franzking 08:50:12.19 1360.990 00:50:12.19
233 SK FÁBRY MUDRONČEKOVÁ Adriána Lucia 08:50:12.23 1360.972 00:50:12.23
234 CZ ŠABATA Jan J.Š. 12 08:50:12.35 1360.918 00:50:12.35
235 CZ JURÁSEK BARBAR TEAM Adolf 08:50:12.40 1360.895 00:50:12.40
236 AT FERENC & GARCIA Team Ferenc & Carlo 20 08:50:12.53 1360.836 00:50:12.53
237 CZ VARGA Mikuláš & Petr Úterý 08:50:12.63 1360.791 00:50:12.63
238 CZ HOLICKÝ Rostislav Flash. 08:50:12.66 1360.778 00:50:12.66
239 CZ ČECHURA & SZERENCSÉS Team Lena. 08:50:12.73 1360.746 00:50:12.73
240 CZ KOLÍNEK Jarolím st.+ ml. Jarolím Ml 08:50:12.85 1360.692 00:50:12.85
241 DE HUNTER TEAM Hunter 005 08:50:12.86 1360.687 00:50:12.86
242 DE BÖHME & WITT TEAM Michael + Lutz Estrella 08:50:12.91 1360.665 00:50:12.91
243 PL SZYMCZYK & MISIAK TEAM Wiktor + Marek Arek 08:50:13.18 1360.543 00:50:13.18
244 CZ GORCA TEAM Marek* 08:50:13.63 1360.340 00:50:13.63
245 DE RUPPRECHT RACING PIGEONS Team Marie. 08:50:13.68 1360.317 00:50:13.68
246 DE GOETZ Guenter GG 2 08:50:13.97 1360.186 00:50:13.97
247 CZ VETPOL HOLEŠOV s.r.o. Hiro 08:50:13.98 1360.182 00:50:13.98
248 CZ BARÁNEK Josef Tsunami 08:50:14.06 1360.145 00:50:14.06
249 DE NAMIBIA TEAM Andreas Lücke & Michael Hoop Nastas 08:50:14.76 1359.830 00:50:14.76
250 DE RÖHLIG & BUKOWSKI Team Pia 9 08:50:14.91 1359.762 00:50:14.91
251 DE RUPPRECHT RACING PIGEONS Team Sergio 08:50:15.13 1359.663 00:50:15.13
252 CZ MS NOVÝ BYDŽOV Akym 08:50:15.23 1359.618 00:50:15.23
253 PL KARDAS Michal Raul 08:50:15.43 1359.527 00:50:15.43
254 CZ DVOŘÁK Zbyněk Kornfeil 08:50:15.97 1359.284 00:50:15.97
255 CZ GERSPITZER Team GT 3 08:50:16.05 1359.248 00:50:16.05
256 CZ KONOPÍK Jiří Yps 08:50:16.24 1359.162 00:50:16.24
257 CZ HAŠŠO Slavomír Jarka 08:50:16.51 1359.041 00:50:16.51
258 DE K.H.WICHERT Cech 08:50:16.66 1358.973 00:50:16.66
259 CZ KUBÁČEK Lubomír "B" Honza. 08:50:16.82 1358.901 00:50:16.82
260 TH PERMSAK SINGSOM BOON Permsak 225 08:50:16.96 1358.838 00:50:16.96
261 SK BINDAS Štefan jun. Bjuk 08:50:17.02 1358.811 00:50:17.02
262 SK BODNÁR & VILČKO Vladimír Body 7 08:50:17.19 1358.734 00:50:17.19
263 CZ DUDA Přemysl Dunaj 08:50:17.26 1358.703 00:50:17.26
264 DE CHRISTIAN BIEL PIGEONS Super Fly 11 08:50:17.51 1358.590 00:50:17.51
265 ES WINKIE PIGEONS Winkie 11 08:50:17.73 1358.491 00:50:17.73
266 DE FAMILIE SOELLNER F.S. 05 08:50:17.82 1358.451 00:50:17.82
267 CN CELINE SUN & SKRBEK MAREK "A" Royal Athlete II. 08:50:17.84 1358.442 00:50:17.84
268 CZ ACADEMY LOFT Štěpánek Akademie Libchavy Gerard 08:50:18.24 1358.262 00:50:18.24
269 DE RÖHLIG & BUKOWSKI Team Pia 7 08:50:18.25 1358.257 00:50:18.25
270 PL MAZIARZ RACING TEAM Suri 08:50:18.99 1357.924 00:50:18.99
271 CZ KUDELA Jaromír Ing. Mája 08:50:19.13 1357.861 00:50:19.13
272 CN CELINE SUN & SKRBEK MAREK "C" Alphabet 08:50:19.21 1357.825 00:50:19.21
273 CZ TÁBORSKÝ Vladimír "A" Anny 08:50:19.25 1357.807 00:50:19.25
274 HU FÖLDING Norbert FN 044 08:50:19.40 1357.740 00:50:19.40
275 DE RUPPRECHT RACING PIGEONS Team Jos 08:50:19.47 1357.708 00:50:19.47
276 HU VAÁRY Péter VP 017 08:50:19.50 1357.695 00:50:19.50
277 CZ ŠABATA Jan J.Š. 03 08:50:19.62 1357.641 00:50:19.62
278 CZ KRET Jiří Líla 08:50:19.68 1357.614 00:50:19.68
279 CZ KROČIL & BARÁNEK Team Maruška. 08:50:19.75 1357.583 00:50:19.75
280 AT SG NUTZ & KAHR Aufsteiger Jonny 08:50:19.90 1357.515 00:50:19.90
281 CZ ŘEZNÍČEK & TOMEK Gabča 08:50:20.21 1357.376 00:50:20.21
282 CZ KULÍK Přemysl Jitka 08:50:20.22 1357.371 00:50:20.22
283 CZ YOUNG STARS Anabell 08:50:20.57 1357.214 00:50:20.57
284 CZ VACEK Josef Maruška 08:50:20.68 1357.165 00:50:20.68
285 SK BINDAS Štefan jun. Bliss 08:50:20.71 1357.151 00:50:20.71
286 CZ MATOUŠEK Michal Miroslav 08:50:21.14 1356.958 00:50:21.14
287 CZ KUBA KUBIKULA Kuba. 08:50:21.22 1356.922 00:50:21.22
288 CZ ACADEMY LOFT Štěpánek Akademie Libchavy Strela 88 08:50:21.42 1356.832 00:50:21.42
289 DE SG STEFFL Zille Go 1 08:50:21.61 1356.747 00:50:21.61
290 SK BALVOŇ Michal Pekna 08:50:21.68 1356.715 00:50:21.68
291 CZ BARUNČIN KVĚTINOVÝ LOFT Štěpánek Akademie Libchavy Kittel Lincia 97 08:50:21.99 1356.576 00:50:21.99
292 SK LAŠ Vladimír Las 7 08:50:22.17 1356.495 00:50:22.17
293 SK PAJTA Vladimír Pinka 08:50:22.27 1356.451 00:50:22.27
294 HU KLAUZ Attila & VIGLIDÁN Péter Vipe 427 08:50:22.34 1356.419 00:50:22.34
295 CZ BUREŠ Jaroslav Hibernal 08:50:22.59 1356.307 00:50:22.59
296 CZ LAŇKA Alfons Ing. Franta 08:50:22.75 1356.235 00:50:22.75
297 NL SIMONSZ Henk Maestro 004 08:50:22.98 1356.132 00:50:22.98
298 DE GOETZ Guenter GG 9 08:50:23.03 1356.110 00:50:23.03
299 CZ KLEMENS Karel "B" Uno 08:50:23.26 1356.006 00:50:23.26
300 DE NO-WU Team NW 5 08:50:23.32 1355.980 00:50:23.32
301 CZ J.R.TEAM RS 3 08:50:23.45 1355.921 00:50:23.45
302 DE WILDECK Team WT 3 08:50:23.62 1355.845 00:50:23.62
303 SK BODNÁR & VILČKO Vladimír Body 8 08:50:23.67 1355.823 00:50:23.67
304 CN CELINE SUN & SKRBEK MAREK "A" Royal Athlete III. 08:50:23.88 1355.728 00:50:23.88
305 SK PRIEHODA Ján a Ivana Constance 08:50:24.11 1355.625 00:50:24.11
306 IT FAST PIGEONS & ERVIN LARO Larko 08:50:24.25 1355.563 00:50:24.25
307 CZ LUNDÁK Pavel Anna. 08:50:24.30 1355.540 00:50:24.30
308 DE WINGS 2 WIN Amir 34 08:50:24.49 1355.455 00:50:24.49
309 FR FLAVIGNY M.S.L. Team Turbo Flash 08:50:24.55 1355.428 00:50:24.55
310 DE SCHÜTZE Jörn Raph 08:50:24.63 1355.392 00:50:24.63
311 CZ NOVÁK & BASTL Team Patrik 08:50:24.79 1355.321 00:50:24.79
312 CZ HLAVINKA Josef Limburg 08:50:24.91 1355.267 00:50:24.91
313 NL LOWLANDS RACING TEAM LRT 1 08:50:25.08 1355.191 00:50:25.08
314 SK BLAŽENEC & VAŇO Portugal 08:50:25.45 1355.025 00:50:25.45
315 SK PRÍVARA Pavol Uršuĺa 08:50:25.75 1354.891 00:50:25.75
316 CZ NOVÁK & BASTL Team Griotka 08:50:25.77 1354.882 00:50:25.77
317 SK HUSÁR & PONIŠTIAK Team Gaviria 08:50:26.24 1354.671 00:50:26.24
318 CZ KADLEČÍK Jiří - Boris Farlepka 08:50:26.43 1354.586 00:50:26.43
319 NL TOWER FLYERS LOFT Tower Flyer 4 08:50:26.76 1354.438 00:50:26.76
320 DE FAMILIE SOELLNER F.S. 02 08:50:26.79 1354.425 00:50:26.79
321 CZ ŠTACH Vladimír Vlaš 4 08:50:27.56 1354.081 00:50:27.56
322 PL LACH TEAM Adrian + Mateusz Hala 08:50:28.09 1353.844 00:50:28.09
323 DE SG SCHMIDT - SOMMER Ceres 08:50:28.17 1353.808 00:50:28.17
324 PL SEDLÁČEK & MISIAK TEAM Josef + Irek Mamgal 08:50:28.45 1353.683 00:50:28.45
325 CZ YOUNG STARS Ebigeil 08:50:28.71 1353.566 00:50:28.71
326 HU GÁBOR Scheily Sch 541 08:50:28.81 1353.522 00:50:28.81
327 DE SG STEFFL Speedy 00 08:50:28.94 1353.464 00:50:28.94
328 AT SCHOBER Karl Sumi Alpha 08:50:29.48 1353.222 00:50:29.48
329 DE WOLTERINK Gerald Gerald 27 08:50:29.76 1353.097 00:50:29.76
330 DE SG SCHMIDT - SOMMER Aphrodite 08:50:29.85 1353.057 00:50:29.85
331 DE WINGS 2 WIN Lena 56 08:50:30.12 1352.937 00:50:30.12
332 SK PRIEHODA Ján a Ivana Ariana 08:50:30.21 1352.896 00:50:30.21
333 CZ KRATOCHVÍL Dušan Petr 2 08:50:30.41 1352.807 00:50:30.41
334 SK JASOVSKÝ Jozef + Ĺubomír Martin 02 08:50:30.64 1352.704 00:50:30.64
335 AT SCHOBER Karl Bisscaya 08:50:30.86 1352.606 00:50:30.86
336 SK HROZEN Peter Žaneta 08:50:31.16 1352.472 00:50:31.16
337 DE CHRISTIAN BIEL PIGEONS Super Fly 1 08:50:31.31 1352.405 00:50:31.31
338 CZ GROH Aleš Blue Brutus 08:50:32.25 1351.986 00:50:32.25
339 TH TEAM DR.TEERACHON-TEC Thailand 675 08:50:32.26 1351.982 00:50:32.26
340 DE GOETZ Guenter GG 6 08:50:32.39 1351.924 00:50:32.39
341 CZ EM-EKO.CZ Valena 08:50:32.68 1351.794 00:50:32.68
342 CZ NOVOTNÝ Jaroslav Pavlina 08:50:33.25 1351.540 00:50:33.25
343 DE RUPPRECHT RACING PIGEONS Team "B" Angelo 08:50:33.59 1351.389 00:50:33.59
344 DE FAMILIE JOEKEL Einstein 08:50:33.86 1351.269 00:50:33.86
345 DE KLÜBER Bernhard BK 1 08:50:34.13 1351.148 00:50:34.13
346 DE FAMILIE SOELLNER F.S. 07 08:50:34.87 1350.819 00:50:34.87
347 PL MAZIARZ RACING TEAM Brad 08:50:35.02 1350.752 00:50:35.02
348 CH WIRZ Team Liberec 08:50:35.05 1350.739 00:50:35.05
349 IT ALI DEL GATTOPARDO Team Alli 08:50:35.43 1350.570 00:50:35.43
350 DE RUPPRECHT RACING PIGEONS Team Meeuw 08:50:35.46 1350.556 00:50:35.46
351 CZ CEZAVA a.s. BLUČINA Miroslav Ivan CE 5 08:50:35.53 1350.525 00:50:35.53
352 BE MERGAERT Dirk Merina 08:50:35.60 1350.494 00:50:35.60
353 DE RÖHLIG & BUKOWSKI Team Pia 10 08:50:35.81 1350.401 00:50:35.81
354 CZ GRUBER Simon "B" Katie 08:50:35.90 1350.361 00:50:35.90
355 PL KWASNICKI Tomasz Diana 08:50:36.06 1350.290 00:50:36.06
356 DE BEHLKE Andreas Lightning 08:50:36.47 1350.107 00:50:36.47
357 HU KLAUZ Attila & VIGLIDÁN Péter Vipe 428 08:50:36.67 1350.018 00:50:36.67
358 CZ KUBÁČEK Lubomír "C" Max 08:50:36.87 1349.929 00:50:36.87
359 NL EKEHAAR / TER APEL TEAM Olympic Maxima 08:50:37.06 1349.845 00:50:37.06
360 CZ KLEMENS Karel "A" Aro 08:50:38.13 1349.370 00:50:38.13
361 CZ TÁBORSKÝ Vladimír "A" Fanda 08:50:38.26 1349.312 00:50:38.26
362 CZ ZADRAŽILOVI M+P+M Ležáky 08:50:38.32 1349.285 00:50:38.32
363 DE BELOW Harald OneEightyseven 08:50:38.47 1349.219 00:50:38.47
364 CZ KLEMENS Karel "A" Ady 08:50:38.70 1349.116 00:50:38.70
365 DE KLÜBER Bernhard BK 6 08:50:38.80 1349.072 00:50:38.80
366 DE BELOW Harald OneEightysix 08:50:38.81 1349.068 00:50:38.81
367 SK BLAŽENEC & VAŇO Poxpy 08:50:39.15 1348.917 00:50:39.15
368 CZ SVOBODA - ČIHÁK Team Jana+ 08:50:39.20 1348.894 00:50:39.20
369 DE HUNTER TEAM Hunter 933 08:50:39.57 1348.730 00:50:39.57
370 AT WIEFLER Alois Alfred 08:50:39.92 1348.575 00:50:39.92
371 CZ NOVÁK Josef a syn Elis 08:50:40.03 1348.526 00:50:40.03
372 DE LANG Karl Heinz Langstory 08:50:40.17 1348.464 00:50:40.17
373 DE RUPPRECHT RACING PIGEONS Team Flicka 08:50:40.32 1348.398 00:50:40.32
374 CZ GROH Aleš Boss Marmelados 08:50:40.72 1348.220 00:50:40.72
375 DE ROHE Pascal Theon Graufreud 08:50:40.83 1348.171 00:50:40.83
376 PL WÓJCIK Piotr Maxi 08:50:40.84 1348.167 00:50:40.84
377 CZ LUKÁŠ Jan Taxi. 08:50:41.11 1348.047 00:50:41.11
378 SK HRNČIAR PETER & MIRO Team Mirka 08:50:41.17 1348.021 00:50:41.17
379 DE LANG Karl Heinz Langston 08:50:41.31 1347.959 00:50:41.31
380 PL KOZLENIA Artur Chicox 08:50:41.52 1347.866 00:50:41.52
381 RO SUPER STAR OLR - reciprocity 2020 Star 2 08:50:41.70 1347.786 00:50:41.70
382 AT GRATZER Marco Don Corleone 08:50:41.72 1347.777 00:50:41.72
383 CZ ACADEMY LOFT Štěpánek Akademie Libchavy Puma Birdy 08:50:41.98 1347.662 00:50:41.98
384 DE HESSENBOYS TEAM One Loft Pigeon Racing Oliver. 08:50:42.08 1347.617 00:50:42.08
385 NL MOL Ed Bobby 08:50:42.20 1347.564 00:50:42.20
386 CZ SÝKORA Jaromír C.Ronaldo 08:50:42.48 1347.440 00:50:42.48
387 DE HUNTER TEAM Hunter 033 08:50:42.74 1347.325 00:50:42.74
388 DE GOETZ Guenter GG 10 08:50:42.96 1347.228 00:50:42.96
389 CZ FRANTIŠEK & SAMUEL & GRZEGORZ Team Periwig 08:50:43.12 1347.157 00:50:43.12
390 HU FÖLDING Norbert FN 043 08:50:43.20 1347.121 00:50:43.20
391 NL TOWER FLYERS LOFT Tower Flyer 5 08:50:43.33 1347.064 00:50:43.33
392 CZ GRUBER Simon "B" Rocky. 08:50:43.38 1347.042 00:50:43.38
393 AT STRAIF Walter Walbur 08:50:43.50 1346.989 00:50:43.50
394 CZ CEZAVA a.s. BLUČINA Miroslav Ivan CE 11 08:50:43.52 1346.980 00:50:43.52
395 PL WOZNICA Józef Adenox 08:50:43.87 1346.825 00:50:43.87
396 SK LAŠ Vladimír Las 8 08:50:43.96 1346.785 00:50:43.96
397 PL SEDLÁČEK & MISIAK TEAM Josef + Irek Daenerys 08:50:44.10 1346.723 00:50:44.10
398 CZ VRCHLABÍ Team Hora 08:50:44.14 1346.705 00:50:44.14
399 PL LACH TEAM Adrian + Mateusz Azi 08:50:44.60 1346.502 00:50:44.60
400 CZ NEW VES - PSV EINDHOVEN Team Boni 08:50:44.77 1346.427 00:50:44.77
401 CZ ACADEMY LOFT Štěpánek Akademie Libchavy Kittel-Lincia 4075 08:50:44.94 1346.352 00:50:44.94
402 TH PERMSAK SINGSOM BOON Permsak 233 08:50:45.03 1346.312 00:50:45.03
403 CZ VACEK Josef Vajda 08:50:45.21 1346.232 00:50:45.21
404 NL PLOEG Bert Bergy 08:50:45.28 1346.201 00:50:45.28
405 DE RUPPRECHT RACING PIGEONS Team Romi 08:50:45.38 1346.157 00:50:45.38
406 DE LECKE Theo & Markus Tyras 08:50:45.40 1346.148 00:50:45.40
407 CZ ŘEZNÍČEK & TOMEK Falko 08:50:45.64 1346.042 00:50:45.64
408 DE BEHLKE Andreas Flashlight 08:50:45.70 1346.016 00:50:45.70
409 CN CELINE SUN & SKRBEK MAREK "B" Black Party II. 08:50:45.81 1345.967 00:50:45.81
410 CZ POPELKA Roman Fekota 08:50:45.98 1345.892 00:50:45.98
411 DE WINGS 2 WIN Camila 50 08:50:46.09 1345.843 00:50:46.09
412 NO HELGESEN Bjorn Ove Karoke 234 08:50:46.33 1345.737 00:50:46.33
413 DE KLÜBER Bernhard BK 5 08:50:46.45 1345.684 00:50:46.45
414 CZ PETER Milan Mat 08:50:46.56 1345.636 00:50:46.56
415 CH ANDERHUB Oskar Andretti 08:50:46.65 1345.596 00:50:46.65
416 AT GASSER Reinhard Belluno One 08:50:46.98 1345.450 00:50:46.98
417 SK PRIEHODA Ján a Ivana Zara 08:50:47.07 1345.411 00:50:47.07
418 CZ ZEMAN & KAŠUBA ZK 2 08:50:47.16 1345.371 00:50:47.16
419 CZ FIALA Alois Ali 08:50:47.25 1345.331 00:50:47.25
420 SK EVIN Peter + Noemi Peter 79 08:50:47.42 1345.256 00:50:47.42
421 SK JAŠKA Štefan Dr. Zero Seven 08:50:47.57 1345.190 00:50:47.57
422 AT SG NUTZ & KAHR Rabiatperlen Melody 08:50:47.70 1345.132 00:50:47.70
423 SK NOVÁK Matej Zerner 08:50:47.74 1345.115 00:50:47.74
424 DE CHRISTIAN BIEL PIGEONS Super Fly 12 08:50:47.86 1345.062 00:50:47.86
425 DE RUPPRECHT RACING PIGEONS Team Dylan 08:50:48.45 1344.801 00:50:48.45
426 DE RUPPRECHT RACING PIGEONS Team "B" Claire 08:50:48.91 1344.599 00:50:48.91
427 DE JONAS und KONČAREVIČ Team Wolfgang 08:50:48.92 1344.594 00:50:48.92
428 DE RUPPRECHT RACING PIGEONS Team "B" Nicky 08:50:49.17 1344.484 00:50:49.17
429 CZ YOUNG FLYERS Senohrábek SP 199 08:50:49.19 1344.475 00:50:49.19
430 CZ ŠAFRÁNKO Jiří Gracie 08:50:49.34 1344.409 00:50:49.34
431 CZ POPELKA Roman Jekota 08:50:49.40 1344.383 00:50:49.40
432 CZ KUDELA Jaromír Ing. Lucie. 08:50:49.73 1344.237 00:50:49.73
433 CZ YOUNG FLYERS Senohrábek SP 198 08:50:49.82 1344.197 00:50:49.82
434 DE WOLTERINK Gerald Gerald 39 08:50:49.87 1344.175 00:50:49.87
435 CZ CEZAVA a.s. BLUČINA Miroslav Ivan CE 8 08:50:50.13 1344.061 00:50:50.13
436 PL GALUS & KULESA TEAM Jan + Frantiszek Klara 08:50:50.21 1344.025 00:50:50.21
437 DE SACHSENEXPRESS Team Creator 08:50:50.67 1343.823 00:50:50.67
438 DE RÖHLIG & BUKOWSKI Team Pia 4 08:50:50.75 1343.788 00:50:50.75
439 CZ ADAMÍK Zdeněk Dominik 08:50:51.22 1343.581 00:50:51.22
440 DE SG STEFFL Championess 08:50:51.28 1343.554 00:50:51.28
441 DE ROHE Pascal Cersei Lannister 08:50:51.45 1343.479 00:50:51.45
442 DE KARL-HEINZ & TIMO WAGNER Walett 08:50:51.54 1343.440 00:50:51.54
443 PL LACH TEAM Adrian + Mateusz Bari 08:50:51.63 1343.400 00:50:51.63
444 CZ LUKÁŠ Jan Miro. 08:50:51.72 1343.360 00:50:51.72
445 CN CELINE SUN & SKRBEK MAREK "C" No Time II. 08:50:51.93 1343.268 00:50:51.93
446 HU GÁBOR Scheily Sch 528 08:50:52.11 1343.189 00:50:52.11
447 CZ JURÁSEK BARBAR TEAM Elen 08:50:52.17 1343.162 00:50:52.17
448 DE CHRISTIAN BIEL PIGEONS Super Fly 4 08:50:52.83 1342.872 00:50:52.83
449 CN CELINE SUN & SKRBEK MAREK "B" Luyten I. 08:50:53.09 1342.758 00:50:53.09
450 PL CHOCHOWSKI & FRACKOWIAK & MALEPSZY Team Lena 08:50:53.16 1342.727 00:50:53.16
451 CZ BUREŠ Jaroslav Karmazín 08:50:53.38 1342.630 00:50:53.38
452 PL SEDLACEK Josef Ella 08:50:53.48 1342.586 00:50:53.48
453 NL LOWLANDS RACING TEAM LRT 2 08:50:53.74 1342.472 00:50:53.74
454 BE FLY-4-US Pollin & Denduyver Bolleke 08:50:53.92 1342.393 00:50:53.92
455 DE K.H.WICHERT Kratochvilova 08:50:54.07 1342.327 00:50:54.07
456 DE LASTERIE - MEIJER - BRANDT Team Creme de la Creme 08:50:54.30 1342.226 00:50:54.30
457 HU LÁDY Tibor Bite 08:50:54.35 1342.204 00:50:54.35
458 PL KOWAL R. & PABIŚ J. i M. Team Mimo 08:50:54.61 1342.089 00:50:54.61
459 CZ BARUNČIN KVĚTINOVÝ LOFT Štěpánek Akademie Libchavy Eso 4000 08:50:54.70 1342.050 00:50:54.70
460 AT SCHÖN Johann Rosi 08:50:54.86 1341.980 00:50:54.86
461 PL KOWAL R. & PABIŚ J. i M. Team Cacany 08:50:54.87 1341.975 00:50:54.87
462 PL KOWAL R. & PABIŚ J. i M. Team Rumcajs 08:50:55.16 1341.848 00:50:55.16
463 DE TARGATZ Angela Dr. Dr 5 08:50:55.33 1341.773 00:50:55.33
464 CZ BARTL Pavel Spown 6 08:50:55.53 1341.685 00:50:55.53
465 CZ CEZAVA a.s. BLUČINA Miroslav Ivan CE 10 08:50:55.58 1341.663 00:50:55.58
466 CZ LAŇKA Alfons Ing. Martina 08:50:55.95 1341.501 00:50:55.95
467 CZ LAŇKA Alfons Ing. Tomáš 08:50:56.01 1341.475 00:50:56.01
468 CZ FRANTIŠEK & SAMUEL & GRZEGORZ Team Lady Anne 08:50:56.10 1341.435 00:50:56.10
469 SK BODNÁR Ĺubo LB 6 08:50:56.45 1341.282 00:50:56.45
470 CZ HLAVINKA Josef Lili* 08:50:56.76 1341.146 00:50:56.76
471 BE MERGAERT Dirk Mercury 08:50:57.04 1341.023 00:50:57.04
472 TH TEAM DR.TEERACHON-TEC Thailand 370 08:50:57.20 1340.953 00:50:57.20
473 CZ EM-EKO.CZ Czemba 08:50:57.41 1340.860 00:50:57.41
474 CZ KOCIÁN Milan Ronaldo 08:50:57.53 1340.808 00:50:57.53
475 CZ ŠPIONI Agent 5 08:50:57.99 1340.606 00:50:57.99
476 CZ REIN Jan Joe 08:50:58.01 1340.597 00:50:58.01
477 CZ GRUBER Simon "A" Žofka 08:50:58.02 1340.593 00:50:58.02
478 AT WENZ Alfred Maria 08:50:58.24 1340.496 00:50:58.24
479 CZ VRCHLABÍ Team Mat. 08:50:58.45 1340.404 00:50:58.45
480 CN CELINE SUN & SKRBEK MAREK "B" Bulck II. 08:50:58.48 1340.391 00:50:58.48
481 CZ MS NOVÝ BYDŽOV Endy. 08:50:58.56 1340.356 00:50:58.56
482 AT RÖTZER & GARCIA Team Top 5 08:50:58.73 1340.282 00:50:58.73
483 CZ KOLÍNEK Jarolím st.+ ml. Jarolím St 08:50:58.87 1340.220 00:50:58.87
484 CZ KLEMENS Karel "C" Nicolas 08:50:58.92 1340.199 00:50:58.92
485 AT WIMMER Karl Lilli 08:50:59.02 1340.155 00:50:59.02
486 CZ VRCHLABÍ Team Němec 08:50:59.34 1340.015 00:50:59.34
487 CZ KLEMENS Karel "A" Samuel 08:50:59.42 1339.979 00:50:59.42
488 IT CELLI & GHIACCI & VALVO "B" Giove 08:50:59.81 1339.809 00:50:59.81
489 CZ LAŇKA Alfons Ing. David 08:51:00.08 1339.690 00:51:00.08
490 CZ PETER Milan Pat 08:51:00.12 1339.673 00:51:00.12
491 CZ BECHA Lubomír Knok 08:51:00.84 1339.358 00:51:00.84
492 SK BODNÁR Ĺubo LB 5 08:51:00.92 1339.323 00:51:00.92
493 CZ KRET Jiří Morgy 08:51:01.46 1339.087 00:51:01.46
494 AT WENZ Alfred Freddy 08:51:01.82 1338.929 00:51:01.82
495 DE FAMILIE JOEKEL Rutherford 08:51:02.05 1338.829 00:51:02.05
496 DE HESSENBOYS TEAM One Loft Pigeon Racing Leon 08:51:02.27 1338.732 00:51:02.27
497 AT GRATZER Marco Nero 08:51:02.49 1338.636 00:51:02.49
498 CZ ZEMAN & KAŠUBA ZK 3 08:51:02.60 1338.588 00:51:02.60
499 CZ KOCIÁN Milan Messi 08:51:02.67 1338.558 00:51:02.67
500 CZ VACEK Josef Pipin 08:51:02.76 1338.518 00:51:02.76
501 AT GRATZER Werner Graden 08:51:03.01 1338.409 00:51:03.01
502 PL WOZNICA Józef Lindor 08:51:04.07 1337.946 00:51:04.07
503 SK HUSÁR & PONIŠTIAK Team "A" Superb 08:51:04.23 1337.876 00:51:04.23
504 DE SG STEFFL Ernst - Dieter 08:51:04.25 1337.867 00:51:04.25
505 AT WIEFLER Alois Harry 08:51:04.62 1337.706 00:51:04.62
506 CZ KONEČNÝ Vlastimil Chris 08:51:04.89 1337.588 00:51:04.89
507 DE MSA RACING TEAM Nova 08:51:05.04 1337.523 00:51:05.04
508 DE SCHÜTZE Jörn Zafira 08:51:05.40 1337.365 00:51:05.40
509 CZ JANEČEK Petr Wanne 08:51:05.77 1337.204 00:51:05.77
510 BE COPPENS Peter Tell 08:51:05.91 1337.143 00:51:05.91
511 CZ RUBEY TEAM Michal & Robert Ruby 10 08:51:06.31 1336.969 00:51:06.31
512 DE NO-WU Team NW 2 08:51:06.47 1336.899 00:51:06.47
513 DE SG STEFFL Raspi 08:51:06.55 1336.864 00:51:06.55
514 CZ KUZNÍK Václav Kamča 08:51:06.98 1336.676 00:51:06.98
515 SK ČÁNI Ĺ+M Team Mária C 08:51:07.24 1336.563 00:51:07.24
516 SK ČÁNI Ĺ+M Team Dávid. 08:51:07.42 1336.485 00:51:07.42
517 CZ BARUNČIN KVĚTINOVÝ LOFT Štěpánek Akademie Libchavy Fast Go Home 08:51:07.50 1336.450 00:51:07.50
518 PL WÓJCIK Piotr Bella. 08:51:07.88 1336.284 00:51:07.88
519 DE SPRANG Matthias Future 08:51:07.93 1336.263 00:51:07.93
520 CZ TÁBORSKÝ Vladimír "A" Jarda 08:51:08.28 1336.110 00:51:08.28
521 DE DEBUS Gerhard Emma 08:51:08.33 1336.088 00:51:08.33
522 CZ BECHA Lubomír Hauten 08:51:08.67 1335.940 00:51:08.67
523 CZ KUBÁČEK Lubomír "C" Alex 08:51:09.11 1335.749 00:51:09.11
524 CZ ŘEZNÍČEK & TOMEK Tamara 08:51:09.29 1335.670 00:51:09.29
525 CZ ZEMAN & KAŠUBA ZK 6 08:51:09.47 1335.592 00:51:09.47
526 CZ GORCA TEAM Fany 08:51:09.73 1335.479 00:51:09.73
527 CZ VÍTEK Jan Darja 08:51:09.93 1335.392 00:51:09.93
528 PL WOZNICA Józef Kid 08:51:10.54 1335.127 00:51:10.54
529 DE DEBUS Gerhard Martha 08:51:10.77 1335.027 00:51:10.77
530 SK JASOVSKÝ Jozef + Ĺubomír Nika 01 08:51:11.09 1334.888 00:51:11.09
531 AT SCHOBER Karl Atlantis 08:51:11.36 1334.770 00:51:11.36
532 DE GOETZ Guenter GG 5 08:51:11.43 1334.740 00:51:11.43
533 DE HESSENBOYS TEAM One Loft Pigeon Racing Ben 08:51:11.67 1334.636 00:51:11.67
534 PL MICHALAK Bogdan Tinka 08:51:12.51 1334.271 00:51:12.51
535 CZ BARTL Pavel Spown 5 08:51:12.53 1334.262 00:51:12.53
536 DE FAMILIE JOEKEL Ohm 08:51:13.13 1334.001 00:51:13.13
537 DE KLÜBER Bernhard BK 3 08:51:13.41 1333.880 00:51:13.41
538 NL EKEHAAR / TER APEL TEAM Czechia 2.0 08:51:13.48 1333.850 00:51:13.48
539 NO HELGESEN Bjorn Ove Pilsen´s 230 08:51:13.58 1333.806 00:51:13.58
540 CZ VACEK Josef Jiřik 08:51:13.64 1333.780 00:51:13.64
541 CZ ZEMAN Petr Petr 08:51:13.82 1333.702 00:51:13.82
542 DE BEHLKE Andreas Sunny 08:51:14.17 1333.550 00:51:14.17
543 CZ NERS Jaroslav Marie 08:51:14.23 1333.524 00:51:14.23
544 HU GÁBOR Scheily Sch 525 08:51:14.35 1333.472 00:51:14.35
545 CZ MAKANAKI Team Pavel 2 08:51:14.39 1333.455 00:51:14.39
546 SK BODNÁR Ĺubo LB 4 08:51:14.75 1333.299 00:51:14.75
547 DE FAMILIE JOEKEL Curie 08:51:14.77 1333.290 00:51:14.77
548 CZ KUBÁČEK Lubomír Elena 08:51:15.11 1333.143 00:51:15.11
549 HU FCI GRAND PRIX VÁC Vác 207 08:51:15.31 1333.056 00:51:15.31
550 CZ KLEMENS Karel "A" Cage 08:51:15.37 1333.030 00:51:15.37
551 SK HRNČIAR PETER & MIRO Team Simona 08:51:15.64 1332.913 00:51:15.64
552 CZ HORNÍČEK Ladislav a Pavel Sruby 937 08:51:15.67 1332.900 00:51:15.67
553 AT GRATZER Marco Extrawurst 08:51:15.71 1332.882 00:51:15.71
554 PL ALICE & JACOB Team "A" Truskawka 08:51:16.03 1332.744 00:51:16.03
555 DE WINGS 2 WIN Carmen 53 08:51:16.11 1332.709 00:51:16.11
556 AT STRAIF Walter Walpur 08:51:16.26 1332.644 00:51:16.26
557 CZ TÁBORSKÝ Vladimír "B" Marti 08:51:16.62 1332.488 00:51:16.62
558 DE RUSSIN Christian Karin 08:51:16.91 1332.363 00:51:16.91
559 DE RUPPRECHT RACING PIGEONS Team "B" Anna+ 08:51:17.08 1332.289 00:51:17.08
560 CZ KUBÁČEK Lubomír "B" Malvína 08:51:17.10 1332.280 00:51:17.10
561 CZ HNILIČKA - MACH - RACH Team Finka 08:51:17.54 1332.090 00:51:17.54
562 DE SG SCHMIDT - SOMMER Asklepios 08:51:17.61 1332.060 00:51:17.61
563 SK ZÁTROCH Peter Peter 3 08:51:18.05 1331.869 00:51:18.05
564 AT EDER Gerhard Jacky 08:51:18.21 1331.800 00:51:18.21
565 NL POELMAN Combinatie Poelman 4 08:51:18.50 1331.675 00:51:18.50
566 CZ MOTRE Vasil Naďa 08:51:18.64 1331.614 00:51:18.64
567 CZ VLČEK Jiří Harley 08:51:18.97 1331.471 00:51:18.97
568 DE RÖHLIG & BUKOWSKI Team Pia 11 08:51:19.03 1331.445 00:51:19.03
569 SK JANČEKOVÁ TEAM Karin Kari 08:51:19.19 1331.376 00:51:19.19
570 CZ HLAVINKA Josef Espačo 08:51:19.30 1331.329 00:51:19.30
571 NL CORVO Tess 08:51:19.62 1331.190 00:51:19.62
572 AT STRAIF Walter Waletto 08:51:19.67 1331.169 00:51:19.67
573 NL SIMONSZ Henk Bonte Spikkel 08:51:19.97 1331.039 00:51:19.97
574 CZ MS NOVÝ BYDŽOV Olyn 08:51:20.10 1330.983 00:51:20.10
575 NL DOLDERSUM & Zn. Baros 08:51:20.93 1330.624 00:51:20.93
576 CZ LAŇKA Alfons Ing. Robert 08:51:20.96 1330.611 00:51:20.96
577 BE VAN STICHEL Dirk Gert 08:51:21.44 1330.404 00:51:21.44
578 DE GOETZ Guenter GG 12 08:51:21.49 1330.382 00:51:21.49
579 DE TEAM LINDENHOF Schönrade Bodo Bodyguard 08:51:22.34 1330.016 00:51:22.34
580 CZ CEZAVA a.s. BLUČINA Miroslav Ivan CE 4 08:51:22.88 1329.783 00:51:22.88
581 CZ VARGA Mikuláš & Petr Sobota 08:51:22.92 1329.765 00:51:22.92
582 DE WEIS-JUNGEFLEISCH Team Holländer 08:51:23.13 1329.675 00:51:23.13
583 CZ GRUBER Simon "B" Power 08:51:23.39 1329.563 00:51:23.39
584 SK BLAŽENEC & VAŇO Lagertha 08:51:23.79 1329.390 00:51:23.79
585 AT RADU Constantin Jacomo 08:51:24.46 1329.101 00:51:24.46
586 PL KOWAL R. & PABIŚ J. i M. Team Mili 08:51:24.54 1329.067 00:51:24.54
587 PL SEDLACEK Josef Karlin 08:51:24.57 1329.054 00:51:24.57
588 CN CELINE SUN & SKRBEK MAREK "B" Just Do It I. 08:51:25.10 1328.826 00:51:25.10
589 CZ TRUKSA Vítězslav Eliška. 08:51:25.11 1328.821 00:51:25.11
590 CZ ŘEZNÍČEK & TOMEK Hádés 08:51:25.66 1328.584 00:51:25.66
591 PL ALICE & JACOB Team "A" Ogorek 08:51:26.02 1328.429 00:51:26.02
592 CZ TÁBORSKÝ Vladimír "A" Andrej 08:51:26.12 1328.386 00:51:26.12
593 CZ LUKÁŠ Jan Mat* 08:51:26.71 1328.133 00:51:26.71
594 CZ CEZAVA a.s. BLUČINA Miroslav Ivan CE 9 08:51:26.73 1328.124 00:51:26.73
595 DE JONAS und KONČAREVIČ Team Dieter 08:51:27.24 1327.905 00:51:27.24
596 DE WITT Lutz LW 4 08:51:27.26 1327.896 00:51:27.26
597 CZ BEDNAŘÍK Josef Enny 08:51:27.51 1327.788 00:51:27.51
598 DE K.H.WICHERT Koukalova 08:51:27.76 1327.681 00:51:27.76
599 IT WONDER PIGEONS Team Kinky Tail 08:51:28.39 1327.410 00:51:28.39
600 PL SEDLÁČEK & MISIAK TEAM Josef + Irek Essea 08:51:29.08 1327.114 00:51:29.08
601 CZ VRCHLABÍ Team Pat. 08:51:29.56 1326.907 00:51:29.56
602 DE SG STEFFL Favorit 08:51:30.25 1326.611 00:51:30.25
603 BE FLY-4-US Pollin & Denduyver Pitje 08:51:30.91 1326.328 00:51:30.91
604 SK HRNČIAR PETER & MIRO Team Celo 08:51:31.49 1326.079 00:51:31.49
605 SK MAJDÁK Michal Apatit 08:51:31.82 1325.937 00:51:31.82
606 DE NAKOTT Ludwig New Boris 08:51:32.05 1325.839 00:51:32.05
607 PL ALICE & JACOB Team "B" Kalerap 08:51:32.12 1325.809 00:51:32.12
608 CZ ŠIK Jaroslav Erik 08:51:32.33 1325.719 00:51:32.33
609 CZ MASNÝ - LAZOVÝ Team Lalin 08:51:32.50 1325.646 00:51:32.50
610 CZ KADLEČÍK Jiří - Boris Rokerka 08:51:32.68 1325.569 00:51:32.68
611 PL MICHALAK Bogdan Niuniek 08:51:32.74 1325.543 00:51:32.74
612 DE TREPTE ARNDT & MARCUS Rödertalflieger Jana* 08:51:32.93 1325.462 00:51:32.93
613 CZ KUBÁČEK Lubomír Emily 08:51:33.05 1325.410 00:51:33.05
614 PL SEDLACEK Josef Zocha 08:51:33.17 1325.359 00:51:33.17
615 DE K.H.WICHERT Zatopek 08:51:33.27 1325.316 00:51:33.27
616 PL SEDLACEK Josef Kayla 08:51:33.63 1325.162 00:51:33.63
617 ES WINKIE PIGEONS Winkie 8 08:51:33.79 1325.093 00:51:33.79
618 DE BEHLKE Andreas Thunder 08:51:34.19 1324.922 00:51:34.19
619 AT GRATZER Marco Claudius 08:51:35.01 1324.571 00:51:35.01
620 AT GRATZER Marco Franz Ferdinand 08:51:35.12 1324.524 00:51:35.12
621 BE VAN STICHEL Dirk Black Shadow 08:51:35.59 1324.323 00:51:35.59
622 CZ KRATOCHVÍL Dušan Petr 4 08:51:35.64 1324.301 00:51:35.64
623 CZ PM Team Popr 08:51:35.80 1324.233 00:51:35.80
624 PL ALICE & JACOB Team "A" Pomidor 08:51:36.34 1324.002 00:51:36.34
625 CZ DVOŘÁK Tomáš Bugatinka 08:51:36.41 1323.972 00:51:36.41
626 CZ J.R.TEAM RS 4 08:51:37.45 1323.527 00:51:37.45
627 SK NOCHTA Štefan Erik. 08:51:37.76 1323.395 00:51:37.76
628 NL POELMAN Combinatie Poelman 5 08:51:38.25 1323.186 00:51:38.25
629 CN CELINE SUN & SKRBEK MAREK "C" Jour Fix. 08:51:38.33 1323.152 00:51:38.33
630 DE SPITZBERG Team Newie 08:51:38.35 1323.143 00:51:38.35
631 DE SASSE/WELZEL Team NL L.T.B.- Kes.1 08:51:38.58 1323.045 00:51:38.58
632 SK EVIN Peter + Noemi Stefan 61 08:51:38.87 1322.921 00:51:38.87
633 NL SIMONSZ Henk Beauty 10 08:51:39.10 1322.823 00:51:39.10
634 CZ JANEČEK Petr Titan 08:51:39.21 1322.776 00:51:39.21
635 CZ MACHALA & HNILICA Team Oreo 08:51:39.51 1322.648 00:51:39.51
636 CZ BARUNČIN KVĚTINOVÝ LOFT Štěpánek Akademie Libchavy Harry Afrika 93 08:51:39.65 1322.588 00:51:39.65
637 CZ REIN Jan Dolly 08:51:39.93 1322.469 00:51:39.93
638 CZ TRUKSA Vítězslav Hana. 08:51:40.16 1322.370 00:51:40.16
639 CZ M & M RACING Blue Storm 08:51:40.36 1322.285 00:51:40.36
639 CZ LAŇKA Alfons Ing. Pepa 08:51:40.36 1322.285 00:51:40.36
641 DE RUPPRECHT RACING PIGEONS Team "B" Mara 08:51:40.40 1322.268 00:51:40.40
642 AT NÖRES Kurt Kuno 1 08:51:40.61 1322.179 00:51:40.61
643 NL CORVO Tobias 08:51:40.66 1322.157 00:51:40.66
644 CZ ČECHURA & SZERENCSÉS Team Vena 08:51:40.86 1322.072 00:51:40.86
645 DE FAMILIE SOELLNER F.S. 01 08:51:40.88 1322.063 00:51:40.88
646 HU WANG Baoli WB 511 08:51:41.04 1321.995 00:51:41.04
647 CN CELINE SUN & SKRBEK MAREK "A" One For Me III. 08:51:41.42 1321.833 00:51:41.42
648 PL MAZIARZ RACING TEAM Amir 08:51:41.59 1321.761 00:51:41.59
649 DE KLÜBER Bernhard BK 2 08:51:41.98 1321.595 00:51:41.98
650 DE NAMIBIA TEAM Andreas Lücke & Michael Hoop Naffi 08:51:42.07 1321.556 00:51:42.07
651 AT ECKHARDT Markus Mozart 08:51:42.41 1321.411 00:51:42.41
652 DE SASSE/WELZEL Team Sekbswig K. 08:51:42.70 1321.288 00:51:42.70
653 CZ NEW VES - PSV EINDHOVEN Team Vini 08:51:42.90 1321.203 00:51:42.90
654 CZ BARÁNEK Josef Rychlík 08:51:43.24 1321.058 00:51:43.24
655 CZ SÝKORA Jaromír Banderas 08:51:43.27 1321.045 00:51:43.27
656 SK TOMÁŠOVÁ Adela Tomas 348 08:51:43.59 1320.909 00:51:43.59
656 DE LANG Karl Heinz Langer 08:51:43.59 1320.909 00:51:43.59
658 DE SCHEPER Günter Gimp 08:51:43.84 1320.803 00:51:43.84
659 CZ MAKANAKI Team Pavel 3 08:51:44.12 1320.683 00:51:44.12
660 CZ REIN Jan Danny 08:51:44.52 1320.513 00:51:44.52
661 CZ KULÍK Přemysl Pegas 08:51:45.10 1320.267 00:51:45.10
662 CZ SCHLEHOFER Michal Crosio 08:51:45.32 1320.173 00:51:45.32
663 DE KARL-HEINZ & TIMO WAGNER Wachhi 08:51:45.42 1320.131 00:51:45.42
664 BE COPPENS Peter Stella 08:51:45.88 1319.935 00:51:45.88
665 DE WINGS 2 WIN Adriana 39 08:51:46.03 1319.871 00:51:46.03
666 DE GOETZ Guenter GG 8 08:51:47.21 1319.370 00:51:47.21
667 PL CHOCHOWSKI & FRACKOWIAK & MALEPSZY Team Piotrek 08:51:47.29 1319.336 00:51:47.29
668 DE K.H.WICHERT Navratilova 08:51:47.56 1319.222 00:51:47.56
669 CZ VETPOL HOLEŠOV s.r.o. Marion 08:51:47.94 1319.060 00:51:47.94
670 SK LAŠ Vladimír Las 12 08:51:48.49 1318.827 00:51:48.49
671 CZ KUBÁČEK Lubomír "B" Adam 08:51:48.89 1318.657 00:51:48.89
672 CZ ČULEN Jaroslav Pišta 08:51:49.08 1318.577 00:51:49.08
673 DE MSA RACING TEAM Gnabry 08:51:49.27 1318.496 00:51:49.27
674 CZ SEDLÁK Vladislav Spring Field 08:51:49.44 1318.424 00:51:49.44
675 TH TEAM DR.TEERACHON-TEC Thailand 917 08:51:49.96 1318.203 00:51:49.96
676 IT CELLI & GHIACCI & VALVO "A" Blue Wave 08:51:50.22 1318.093 00:51:50.22
677 CZ SVOBODA - ČIHÁK Team Lenka. 08:51:50.57 1317.945 00:51:50.57
678 CN CELINE SUN & SKRBEK MAREK "C" Ribelino 08:51:51.29 1317.640 00:51:51.29
679 CZ HORNÍČEK Ladislav a Pavel Sruby 919 08:51:51.50 1317.551 00:51:51.50
680 AT FERENC & GARCIA Team Ferenc 2 08:51:51.58 1317.517 00:51:51.58
681 CZ MAKANAKI Team Makanaki 08:51:52.43 1317.157 00:51:52.43
682 AT RÖTZER & GARCIA Team Top 13 08:51:52.63 1317.073 00:51:52.63
683 PL KOZLENIA Artur Aytonx 08:51:53.21 1316.827 00:51:53.21
684 CZ KONOPÍK Jiří Eva 08:51:53.89 1316.540 00:51:53.89
685 SK HROZEN Peter Peter 08:51:53.96 1316.510 00:51:53.96
686 IT CAPLEA Doru Doru 4 08:51:54.04 1316.476 00:51:54.04
687 DE WINGS 2 WIN Nayla 44 08:51:54.39 1316.328 00:51:54.39
688 SK ZÁTROCH Peter Peter 1 08:51:54.47 1316.295 00:51:54.47
689 SK BODNÁR & VILČKO Vladimír Body 6 08:51:54.66 1316.214 00:51:54.66
690 CR LEXMAN DERBY ZAGREB - reciprocity 2020 Lexicon 08:51:54.89 1316.117 00:51:54.89
691 PL WOZNICA Józef Szpak 08:51:55.47 1315.872 00:51:55.47
692 SK JANČEKOVÁ TEAM Karin Karian 08:51:55.85 1315.712 00:51:55.85
693 CN CELINE SUN & SKRBEK MAREK "C" Tarantino 08:51:56.34 1315.505 00:51:56.34
694 CZ KONOPÍK Jiří Stana 08:51:56.68 1315.361 00:51:56.68
695 NL SIMONSZ Henk Tulip 003 08:51:56.77 1315.323 00:51:56.77
696 HU FCI GRAND PRIX VÁC Vác 210 08:51:57.26 1315.116 00:51:57.26
697 CZ GRUBER Simon "A" Bulck 08:51:57.46 1315.032 00:51:57.46
698 SK ČÁNI Ĺ+M Team Luki 08:51:57.89 1314.851 00:51:57.89
699 CZ TRUKSA Vítězslav Gabina 08:51:58.13 1314.750 00:51:58.13
700 CZ ACADEMY LOFT Štěpánek Akademie Libchavy "B" Eso 4078 08:51:58.61 1314.547 00:51:58.61
701 SK GOGORA Milan Migo 08:51:59.06 1314.358 00:51:59.06
702 DE TEAM WIBA Wilfried Schmunkamp Wiesta 08:51:59.29 1314.261 00:51:59.29
703 SK JAŠKA Štefan Dr. Blackman 08:51:59.59 1314.134 00:51:59.59
704 AT STEINER Alfred Aika 08:51:59.94 1313.987 00:51:59.94
705 PL SZYMCZYK & MISIAK TEAM Wiktor + Marek Julia 08:52:00.90 1313.583 00:52:00.90
706 BG SOFIA TEAM Sony 08:52:01.43 1313.360 00:52:01.43
707 DE TARGATZ Angela Dr. Dr 6 08:52:01.95 1313.141 00:52:01.95
708 BE FLY-4-US Pollin & Denduyver Simon 08:52:02.08 1313.086 00:52:02.08
709 CZ ATH Květná Bobina 08:52:02.49 1312.914 00:52:02.49
710 CZ LAMÁČEK Josef & David La Naomi 08:52:02.67 1312.838 00:52:02.67
711 SK NOCHTA Štefan Sofi 08:52:03.81 1312.359 00:52:03.81
712 BE VAN HAUTE Andre Frank 08:52:04.38 1312.120 00:52:04.38
713 CZ FRANTIŠEK & SAMUEL & GRZEGORZ Team Buldur 08:52:04.77 1311.956 00:52:04.77
714 SK PAJTA Vladimír Riko 08:52:05.06 1311.834 00:52:05.06
715 NL EKEHAAR / TER APEL TEAM Olympic Adele 08:52:05.23 1311.763 00:52:05.23
716 CH ALP RACE TEAM Simon Wolf Art 8 08:52:05.70 1311.565 00:52:05.70
717 CZ RUBEY TEAM Michal & Robert Ruby 3 08:52:06.01 1311.435 00:52:06.01
718 DE SASSE/WELZEL Team Abacus 1 08:52:06.19 1311.360 00:52:06.19
719 DE SCHEPER Günter Gigio 08:52:06.88 1311.070 00:52:06.88
720 CZ RUBEY TEAM Michal & Robert Ruby 12 08:52:07.23 1310.924 00:52:07.23
721 CZ NERS Jaroslav Viktorie 08:52:07.68 1310.735 00:52:07.68
722 TH PERMSAK SINGSOM BOON Permsak 238 08:52:08.10 1310.559 00:52:08.10
723 AT WIEFLER Alois Gypsy One 08:52:08.61 1310.345 00:52:08.61
724 CZ VACEK Josef Magdalinka 08:52:08.71 1310.304 00:52:08.71
725 CZ DUDA Přemysl Morava 08:52:09.07 1310.153 00:52:09.07
726 AT WENZ Alfred Günther 08:52:09.37 1310.027 00:52:09.37
727 PL MICHALAK Bogdan Bilbo 08:52:09.65 1309.910 00:52:09.65
728 TH PERMSAK SINGSOM BOON Permsak 231 08:52:10.23 1309.667 00:52:10.23
729 HU FCI GRAND PRIX VÁC Vác 202 08:52:10.25 1309.659 00:52:10.25
730 SK HROZEN Peter Sanny 08:52:10.40 1309.596 00:52:10.40
731 PL LACH TEAM Adrian + Mateusz Laszi 08:52:10.83 1309.416 00:52:10.83
732 CZ KLEMENS Karel "C" Le Brou 08:52:11.16 1309.278 00:52:11.16
733 SK JANČEKOVÁ TEAM Karin Karis 08:52:11.21 1309.257 00:52:11.21
734 PL KOZAK PRZEMYSLAW TopLofts.eu Nikita. 08:52:11.46 1309.153 00:52:11.46
735 DE TARGATZ Angela Dr. Dr 11 08:52:11.97 1308.940 00:52:11.97
736 PL KOWAL R. & PABIŚ J. i M. Team General 08:52:12.47 1308.731 00:52:12.47
737 AT NÖRES Kurt Kuno 4 08:52:12.59 1308.681 00:52:12.59
738 CZ GROH Aleš Infinity 08:52:12.65 1308.656 00:52:12.65
739 CZ TÁBORSKÝ Vladimír "B" Zdenka 08:52:13.03 1308.497 00:52:13.03
740 IT FAST PIGEONS & ERVIN LARO Largo 08:52:14.19 1308.013 00:52:14.19
741 DE BEHLKE Andreas Aurora 08:52:14.26 1307.983 00:52:14.26
742 DE FAMILIE SOELLNER F.S. 04 08:52:14.79 1307.762 00:52:14.79
743 CZ NOVÁK Josef a syn Verča 08:52:14.83 1307.746 00:52:14.83
744 TH TEAM DR.TEERACHON-TEC Thailand 914 08:52:15.03 1307.662 00:52:15.03
745 AT LEICHTFRIED Karin Gernot 08:52:15.31 1307.545 00:52:15.31
746 NO HELGESEN Bjorn Ove Koppen 245 08:52:15.84 1307.324 00:52:15.84
747 AT STEINER Alfred Amy 08:52:16.12 1307.208 00:52:16.12
748 CZ VLČEK Jiří Teo 08:52:17.45 1306.653 00:52:17.45
749 AT SCHÖN Johann Hans 08:52:17.91 1306.462 00:52:17.91
750 DE K.H.WICHERT Zelezny 08:52:18.34 1306.283 00:52:18.34
751 CZ ČERVEŇÁK Radek Kylie Minogue 08:52:19.04 1305.992 00:52:19.04
752 CZ TRUKSA Vítězslav Jan* 08:52:19.30 1305.883 00:52:19.30
753 CZ KUBÁČEK Lubomír "C" Trinity 08:52:19.59 1305.763 00:52:19.59
754 AT GASSER Reinhard Hop 08:52:20.22 1305.501 00:52:20.22
755 SK HRNČIAR PETER & MIRO Team Paťo 08:52:20.29 1305.472 00:52:20.29
756 SK BODNÁR & VILČKO Vladimír Body 9 08:52:20.67 1305.314 00:52:20.67
757 NL DOLDERSUM & Zn. Grygera 08:52:21.22 1305.085 00:52:21.22
758 PL ALICE & JACOB Team "B" Rabarber 08:52:22.01 1304.757 00:52:22.01
759 DE HUNTER TEAM Hunter 196 08:52:22.97 1304.359 00:52:22.97
760 AT SCHOBER Karl Variano 08:52:24.33 1303.794 00:52:24.33
761 CZ LUKÁŠ Jan Fast 08:52:25.29 1303.397 00:52:25.29
762 CZ KUBÁČEK Lubomír Evička 08:52:26.66 1302.829 00:52:26.66
763 CZ ŠTACH Vladimír Vlaš 2 08:52:27.61 1302.436 00:52:27.61
764 ES WINKIE PIGEONS "B" Winkie 19 08:52:27.97 1302.287 00:52:27.97
765 DE WINGS TO FLY Mystery 1202 08:52:28.16 1302.208 00:52:28.16
766 SK NOVÁK Matej Šeko 08:52:29.11 1301.815 00:52:29.11
767 DE KUSSER Josef Lisa. 08:52:29.76 1301.547 00:52:29.76
768 CZ HLAVINKA Josef Iva 08:52:30.08 1301.415 00:52:30.08
769 DE WINGS TO FLY Zakspeed 1241 08:52:30.53 1301.229 00:52:30.53
770 DE WEIS-JUNGEFLEISCH Team Mini Ries 08:52:31.29 1300.915 00:52:31.29
771 CZ KLEMENS Karel "C" Eli 08:52:31.44 1300.853 00:52:31.44
772 CZ JAVŮREK Miloš George de Vaalent 08:52:31.72 1300.737 00:52:31.72
773 HU VAÁRY Péter VP 018 08:52:32.47 1300.428 00:52:32.47
774 SK TOMÁŠOVÁ Adela Tomas 344 08:52:32.55 1300.395 00:52:32.55
775 SK ČÁNI Ĺ+M Team Moni 08:52:32.84 1300.275 00:52:32.84
776 CZ KLEMENS Karel "A" Era 08:52:33.32 1300.077 00:52:33.32
777 CH ANDERHUB Oskar Antic 08:52:33.51 1299.999 00:52:33.51
778 DE BEHLKE Andreas Storm 08:52:34.13 1299.744 00:52:34.13
779 CZ KONOPÍK Jiří Heli 08:52:34.31 1299.669 00:52:34.31
780 CZ TÁBORSKÝ Vladimír "A" Milan* 08:52:34.81 1299.463 00:52:34.81
781 NO HELGESEN Bjorn Ove Dark Lady 08:52:35.10 1299.344 00:52:35.10
782 DE ROHE Pascal Arya Stark 08:52:35.27 1299.274 00:52:35.27
783 CZ PM Team Deli 08:52:35.61 1299.134 00:52:35.61
784 AT STEINER Alfred Aila 08:52:35.85 1299.035 00:52:35.85
785 HU FÖLDING Norbert FN 050 08:52:36.25 1298.870 00:52:36.25
786 AT LEICHTFRIED Karin Mantra 08:52:36.61 1298.722 00:52:36.61
787 NL POELMAN Combinatie Poelman 2 08:52:36.92 1298.595 00:52:36.92
788 SK FÁBRY MUDRONČEKOVÁ Adriána Tony Lee 08:52:37.31 1298.434 00:52:37.31
789 CZ DUDA Přemysl Vltava 08:52:38.09 1298.114 00:52:38.09
790 AT WIMMER Karl Peter W 08:52:38.32 1298.019 00:52:38.32
791 CZ TRUKSA Vítězslav Lukáš 08:52:38.40 1297.986 00:52:38.40
792 CN CELINE SUN & SKRBEK MAREK "B" Earth Summit II. 08:52:38.52 1297.937 00:52:38.52
793 CZ GORCA TEAM Lada 08:52:38.90 1297.781 00:52:38.90
794 CZ RUBEY TEAM Michal & Robert Ruby 4 08:52:39.12 1297.690 00:52:39.12
795 CZ NOVOTNÝ Jaroslav Nezmar 08:52:39.52 1297.526 00:52:39.52
796 PL ALICE & JACOB Team "A" Kapusta 08:52:40.08 1297.296 00:52:40.08
797 CZ KUBA KUBIKULA Jakub 08:52:41.17 1296.849 00:52:41.17
798 CZ KOLÍNEK Jarolím st.+ ml. Anička V 08:52:41.27 1296.808 00:52:41.27
799 DE WEIS-JUNGEFLEISCH Team Last Chance. 08:52:41.53 1296.701 00:52:41.53
800 AT EDER Gerhard Terminator 08:52:41.79 1296.595 00:52:41.79
801 IT ERBARU Ionut Sami 08:52:41.88 1296.558 00:52:41.88
802 CZ ACADEMY LOFT Štěpánek Akademie Libchavy Kittel Bohemia 85 08:52:42.37 1296.357 00:52:42.37
803 PL KOZAK PRZEMYSLAW TopLofts.eu Tedi 08:52:42.92 1296.131 00:52:42.92
804 CZ MACHALA & HNILICA Team Tom. 08:52:43.09 1296.062 00:52:43.09
805 SK MAJDÁK Michal Jantar 08:52:43.11 1296.054 00:52:43.11
806 CZ TÁBORSKÝ Vladimír "B" Nikol 08:52:43.57 1295.865 00:52:43.57
807 CZ KROUPA & NOVÁK Team Maty. 08:52:43.93 1295.718 00:52:43.93
808 CZ NOVÁK & BASTL Team Whisky 08:52:45.12 1295.231 00:52:45.12
809 DE RUPPRECHT RACING PIGEONS Team Enzo 08:52:45.45 1295.095 00:52:45.45
810 CZ SEDLÁK Vladislav Arka 08:52:45.54 1295.059 00:52:45.54
811 CZ NOVÁK & BASTL Team Filip 08:52:45.60 1295.034 00:52:45.60
812 DE KLÜBER Bernhard BK 4 08:52:45.75 1294.973 00:52:45.75
813 CZ MAKANAKI Team André 08:52:46.19 1294.793 00:52:46.19
814 SK PAJTA Vladimír Filo 08:52:46.43 1294.695 00:52:46.43
815 DE WOLTERINK Gerald Gerald 45 08:52:46.58 1294.633 00:52:46.58
816 HU FÖLDING Norbert FN 047 08:52:46.96 1294.478 00:52:46.96
817 CZ ŠABATA Jan J.Š. 09 08:52:47.38 1294.306 00:52:47.38
818 SK ZÁTROCH Peter Peter 2 08:52:47.69 1294.180 00:52:47.69
819 CZ LAŇKA Alfons Ing. Jaruš 08:52:47.90 1294.094 00:52:47.90
820 SK NOVÁK Matej Sedmička 08:52:48.91 1293.681 00:52:48.91
821 DE RUPPRECHT RACING PIGEONS Team Samira 08:52:49.02 1293.637 00:52:49.02
822 CZ JURÁSEK BARBAR TEAM Marv 08:52:49.62 1293.392 00:52:49.62
823 CZ DUDA Přemysl Orlice 08:52:49.93 1293.265 00:52:49.93
824 CZ NOVOTNÝ Jaroslav Yara 08:52:50.10 1293.196 00:52:50.10
825 DE GOETZ Guenter GG 3 08:52:50.11 1293.192 00:52:50.11
826 DE LANG Karl Heinz Lango 08:52:50.29 1293.118 00:52:50.29
827 DE TEAM WIBA Wilfried Schmunkamp Wieda 08:52:50.51 1293.029 00:52:50.51
828 SK NOVÁK Pavel Vlado 08:52:50.61 1292.988 00:52:50.61
829 PL KOZLENIA Boguslawa Dianaxi 08:52:50.64 1292.976 00:52:50.64
830 SK LAŠ Vladimír Las 1 08:52:50.85 1292.890 00:52:50.85
831 SK SEDLÁK Miroslav & GRÉK Peter Alica 08:52:51.84 1292.486 00:52:51.84
832 DE ROHE Pascal Robb Stark 08:52:52.28 1292.307 00:52:52.28
833 DE FAMILIE SOELLNER F.S. 03 08:52:52.87 1292.067 00:52:52.87
834 CZ STRUŽKA Libor Síma 08:52:53.36 1291.867 00:52:53.36
835 DE RUPPRECHT RACING PIGEONS Team "B" Ronja 08:52:53.81 1291.684 00:52:53.81
836 CZ STRUŽKA Libor Zosimar 08:52:53.88 1291.656 00:52:53.88
837 PL CHOCHOWSKI & FRACKOWIAK & MALEPSZY Team Sara 08:52:54.32 1291.477 00:52:54.32
838 BE DECOENE MARC Team Nonkel Omer 08:52:55.09 1291.163 00:52:55.09
839 DE ROHE Pascal Margaery Tyrell 08:52:55.93 1290.822 00:52:55.93
839 DE TREPTE ARNDT & MARCUS Rödertalflieger Andy 08:52:55.93 1290.822 00:52:55.93
841 TH PERMSAK SINGSOM BOON Permsak 237 08:52:56.47 1290.602 00:52:56.47
842 DE RÖHLIG & BUKOWSKI Team Pia 2 08:52:56.63 1290.537 00:52:56.63
843 CZ KROČIL & BARÁNEK Team Bóďa 08:52:57.12 1290.338 00:52:57.12
844 AT EPPENSTEINER Josef Bella 08:52:57.62 1290.135 00:52:57.62
845 SK HUSÁR & PONIŠTIAK Team Sagan 08:52:57.66 1290.119 00:52:57.66
846 AT STRAIF Walter Walker 08:52:58.68 1289.705 00:52:58.68
847 CZ ŠABATA Jan J.Š. 01 08:52:59.35 1289.433 00:52:59.35
848 CZ GRUBER Simon "A" Eska 08:53:01.39 1288.607 00:53:01.39
849 CZ STRAPINA - ZÁLEŠÁK Team Hana 08:53:02.15 1288.299 00:53:02.15
850 CZ SÝKORA Jaromír Anna 08:53:02.33 1288.226 00:53:02.33
851 CZ ŘEZNÍČEK & TOMEK Abel 08:53:02.82 1288.028 00:53:02.82
852 CZ GROH Aleš Blue Flash 08:53:03.01 1287.951 00:53:03.01
853 SK PRIEHODA Ján a Ivana Nyx 08:53:03.16 1287.890 00:53:03.16
854 CZ GROH Aleš Blue Star. 08:53:03.52 1287.744 00:53:03.52
855 SK JASOVSKÝ Jozef + Ĺubomír Jozef Tadeaš 08:53:04.23 1287.457 00:53:04.23
856 CZ BECHA Lubomír Žanek 08:53:04.58 1287.316 00:53:04.58
857 CZ KONEČNÝ Vlastimil Bety 08:53:05.27 1287.037 00:53:05.27
858 DE WINGS TO FLY Wonder 1242 08:53:05.83 1286.811 00:53:05.83
859 PL KARDAS Michal Huub 08:53:06.89 1286.383 00:53:06.89
860 DE CHRISTIAN BIEL PIGEONS Super Fly 6 08:53:08.49 1285.737 00:53:08.49
861 SK TOMÁŠOVÁ Adela Tomas 5008 08:53:09.30 1285.411 00:53:09.30
862 CZ KUBA KUBIKULA Bohuš 08:53:09.95 1285.149 00:53:09.95
863 SK PAJTA Vladimír Lara 08:53:11.38 1284.573 00:53:11.38
864 PL MICHALAK Bogdan Karol 08:53:11.51 1284.520 00:53:11.51
865 CZ JURÁSEK BARBAR TEAM Silvie 08:53:11.61 1284.480 00:53:11.61
866 NL CORVO Milan+ 08:53:12.04 1284.307 00:53:12.04
867 DE FAMILIE JOEKEL Bohr 08:53:12.81 1283.997 00:53:12.81
868 CZ PM Team Helena* 08:53:13.47 1283.732 00:53:13.47
869 CZ REIN Jan Juan 08:53:13.93 1283.547 00:53:13.93
870 DE SIEBERT Dieter Silver 08:53:14.43 1283.346 00:53:14.43
871 PL WOZNICA Józef Tosca 08:53:15.08 1283.085 00:53:15.08
872 DE WITT Lutz LW 5 08:53:18.27 1281.805 00:53:18.27
873 AT NÖRES & OFNER Team NK 2 08:53:18.89 1281.557 00:53:18.89
874 CZ POPELKA Roman Mekota 08:53:19.08 1281.481 00:53:19.08
875 CZ KAREL TEAM Case 08:53:21.64 1280.456 00:53:21.64
876 CZ PŘÍVARA Vladimír Pýro 08:53:22.43 1280.140 00:53:22.43
877 CZ ZEMAN & KAŠUBA ZK 4 08:53:23.05 1279.893 00:53:23.05
878 AT FERENC & GARCIA Team Ferenc 22 08:53:23.71 1279.629 00:53:23.71
879 CZ ČECHURA & SZERENCSÉS Team Pešigo 08:53:26.59 1278.480 00:53:26.59
880 SK ŠEFČÍK Ĺubomír Šefča 01 08:53:27.10 1278.276 00:53:27.10
881 CZ GERSPITZER Team GT 1 08:53:28.31 1277.794 00:53:28.31
882 CZ LAŇKA Alfons Ing. Petra 08:53:29.74 1277.225 00:53:29.74
883 DE MSA RACING TEAM Mika 08:53:29.91 1277.157 00:53:29.91
884 CZ MAKANAKI Team Pavel 1 08:53:30.41 1276.958 00:53:30.41
885 DE BELOW Harald OneSeventytwo 08:53:30.76 1276.819 00:53:30.76
886 CZ ACADEMY LOFT Štěpánek Akademie Libchavy Strela 87 08:53:31.52 1276.517 00:53:31.52
887 CZ KROUPA & NOVÁK Team Rony 08:53:32.39 1276.171 00:53:32.39
888 CZ DVOŘÁK Zbyněk Abaja 08:53:32.48 1276.136 00:53:32.48
889 AT SG NUTZ & KAHR Aufsteiger Lucky 08:53:35.03 1275.123 00:53:35.03
890 PL KOZLENIA Artur Celenex 08:53:35.09 1275.100 00:53:35.09
891 ES WINKIE PIGEONS Winkie 7 08:53:36.03 1274.727 00:53:36.03
892 HU FCI GRAND PRIX VÁC Vác 201 08:53:38.48 1273.757 00:53:38.48
893 TH TEAM DR.TEERACHON-TEC Thailand 308 08:53:38.77 1273.642 00:53:38.77
894 CZ FAJMON Team FT 03 08:53:39.91 1273.191 00:53:39.91
895 NL SIMONSZ Henk Spikkel 35 08:53:40.32 1273.029 00:53:40.32
896 SK HROZEN Peter Rocky 08:53:40.89 1272.803 00:53:40.89
897 IT WONDER PIGEONS Team Rasta 08:53:42.94 1271.994 00:53:42.94
898 CZ KAREL TEAM AC/DC 08:53:44.68 1271.308 00:53:44.68
899 SK GOGORA Milan Kago 08:53:48.09 1269.965 00:53:48.09
900 SK JAŠKA Štefan Dr. One Dark 08:53:48.63 1269.752 00:53:48.63
901 PL WOZNICA Józef Leonix 08:53:48.96 1269.622 00:53:48.96
902 CZ KUBÁČEK Lubomír "C" Jonáš. 08:53:49.71 1269.328 00:53:49.71
903 DE SG SCHMIDT - SOMMER Aurora. 08:53:50.33 1269.084 00:53:50.33
904 NL LOWLANDS RACING TEAM LRT 5 08:53:50.86 1268.876 00:53:50.86
905 BE MERGAERT Dirk Meridian 08:53:50.97 1268.833 00:53:50.97
906 CZ KLEMENS Karel "B" Li Na 08:53:51.11 1268.778 00:53:51.11
907 CZ M & M RACING Offred 08:53:52.80 1268.114 00:53:52.80
908 AT LEICHTFRIED Walter Joachim 08:53:54.91 1267.287 00:53:54.91
909 CZ GRUBER Simon "A" Koko Loko 08:53:55.27 1267.146 00:53:55.27
910 NL TOWER FLYERS LOFT Tower Flyer 2 08:53:55.94 1266.884 00:53:55.94
911 DE FAMILIE JOEKEL Amperé 08:53:58.50 1265.882 00:53:58.50
912 CZ VRCHLABÍ Team Černá 08:54:00.46 1265.117 00:54:00.46
913 DE RÖHLIG & BUKOWSKI Team Pia 6 08:54:01.27 1264.801 00:54:01.27
914 DE WINGS 2 WIN Mia 42 08:54:08.35 1262.044 00:54:08.35
915 CZ FAJMON Team FT 01 08:54:08.83 1261.857 00:54:08.83
916 CZ DVOŘÁK Zbyněk Cal 08:54:11.33 1260.887 00:54:11.33
917 SK HRNČIAR PETER & MIRO Team Vlado. 08:54:20.43 1257.368 00:54:20.43
918 CZ BARUNČIN KVĚTINOVÝ LOFT Štěpánek Akademie Libchavy Eso 3999 08:54:20.62 1257.295 00:54:20.62
919 CZ LUKÁŠ Jan Lukin 08:54:22.62 1256.524 00:54:22.62
920 SK PAJTA Vladimír Kačena 08:54:27.36 1254.701 00:54:27.36
921 DE LECKE Theo & Markus Tyrin 08:54:27.95 1254.475 00:54:27.95
922 SK NOCHTA Štefan Sisa 08:54:31.09 1253.270 00:54:31.09
923 CZ ZEMAN Petr Jiří 08:54:35.74 1251.491 00:54:35.74
924 PL CHOCHOWSKI & FRACKOWIAK & MALEPSZY Team Mariusz 08:54:37.23 1250.922 00:54:37.23
925 CZ HORNÍČEK Ladislav a Pavel Sruby 931 08:54:37.52 1250.812 00:54:37.52
926 DE WEIS-JUNGEFLEISCH Team Abendrot 08:54:38.05 1250.609 00:54:38.05
927 DE NO-WU Team NW 3 08:54:39.38 1250.102 00:54:39.38
928 SK JAŠKA Štefan Dr. Ten Twenty 08:54:39.66 1249.995 00:54:39.66
929 DE MSA RACING TEAM Flinker Flitzer 08:54:41.52 1249.287 00:54:41.52
930 DE LANG Karl Heinz Langtry 08:54:41.99 1249.108 00:54:41.99
931 CN CELINE SUN & SKRBEK MAREK "A" Mon Mome II. 08:54:45.41 1247.808 00:54:45.41
932 IT ALI DEL GATTOPARDO Team Ally 08:54:46.32 1247.462 00:54:46.32
933 CZ VYSEKAL David & Vojtěch Jägerndorf Lady II. 08:54:53.71 1244.663 00:54:53.71
934 SK BINDAS Štefan jun. Esko 08:54:54.37 1244.414 00:54:54.37
935 CZ HNILIČKA - MACH - RACH Team Ajka 08:54:58.78 1242.750 00:54:58.78
936 CZ TÁBORSKÝ Vladimír "A" Standa 08:55:00.89 1241.956 00:55:00.89
937 DE RUPPRECHT RACING PIGEONS Team Fien 08:55:01.26 1241.817 00:55:01.26
938 SK BINDAS Štefan jun. Viki* 08:55:04.38 1240.644 00:55:04.38
939 CZ GRUBER Simon "A" Petra. 08:55:07.44 1239.496 00:55:07.44
940 SK NOVÁK Pavel Stano 08:55:08.40 1239.137 00:55:08.40
941 CZ LUNDÁK Pavel Daniela. 08:55:11.91 1237.823 00:55:11.91
942 CZ HAŠŠO Slavomír Benda 08:55:21.19 1234.365 00:55:21.19
943 SK HRNČIAR PETER & MIRO Team Peter. 08:55:38.44 1227.987 00:55:38.44
944 SK JANČEKOVÁ TEAM Karin Karisma 08:55:42.47 1226.506 00:55:42.47
945 AT SCHÖN Johann Christian 08:55:52.01 1223.015 00:55:52.01
946 DE BÖHME & WITT TEAM Michael + Lutz Kimba 08:56:00.83 1219.806 00:56:00.83
947 SK LAŠ Vladimír Las 2 08:56:01.28 1219.643 00:56:01.28
948 DE TARGATZ Angela Dr. Dr 2 08:56:03.41 1218.870 00:56:03.41
949 PL KARDAS Michal Marek. 08:56:05.41 1218.146 00:56:05.41
950 AT SG NUTZ & KAHR Aufsteiger Tweety 08:56:05.84 1217.990 00:56:05.84
951 CZ JANEČEK Petr Ronaldo* 08:56:07.76 1217.296 00:56:07.76
952 DE SG STEFFL Algarve Dromer 08:56:08.51 1217.025 00:56:08.51
953 CZ KUBÁČEK Lubomír Bruno 08:56:09.52 1216.660 00:56:09.52
954 PL SZYMCZYK & MISIAK TEAM Wiktor + Marek Jan. 08:56:20.72 1212.629 00:56:20.72
955 SK HUSÁR & PONIŠTIAK Team "A" Ivana 08:56:21.27 1212.432 00:56:21.27
956 CZ KAREL TEAM Pidova Hlava 08:56:31.82 1208.661 00:56:31.82
957 NL SIMONSZ Henk Iris 31 08:56:34.91 1207.561 00:56:34.91
958 CZ PŘÍVARA Vladimír Mysis 08:56:47.34 1203.156 00:56:47.34
959 AT RADU Constantin Speranza 08:56:49.15 1202.517 00:56:49.15
960 CZ STRUŽKA Libor Tom* 08:56:50.20 1202.147 00:56:50.20
961 CZ KRET Jiří Alfa 08:57:20.52 1191.552 00:57:20.52
962 DE TREPTE ARNDT & MARCUS Rödertalflieger Black Mamba 08:57:27.26 1189.223 00:57:27.26
963 CZ KAREL TEAM Bagio 08:57:32.10 1187.555 00:57:32.10
964 AT WENZ Alfred Renate 08:57:32.91 1187.277 00:57:32.91
965 PL ALICE & JACOB Team "A" Malina 08:57:38.65 1185.306 00:57:38.65
966 DE WILDECK Team WT 1 08:57:43.07 1183.794 00:57:43.07
967 CZ RUBEY TEAM Michal & Robert Ruby 6 08:57:50.73 1181.181 00:57:50.73
968 IT WONDER PIGEONS Team Pretty Boy 08:57:51.71 1180.847 00:57:51.71
969 SK TOMÁŠOVÁ Adela Tomas 347 08:58:07.22 1175.595 00:58:07.22
970 CZ KAREL TEAM Zetor 08:58:16.99 1172.311 00:58:16.99
971 DE WEIS-JUNGEFLEISCH Team Little Bosporus 38 08:58:36.96 1165.654 00:58:36.96
972 PL ALICE & JACOB Team "B" Czosnek 08:58:47.88 1162.046 00:58:47.88
973 SK JASOVSKÝ Jozef + Ĺubomír Rudorferka 08:58:49.24 1161.599 00:58:49.24
974 CZ NOVOSAD František Berta N 08:58:50.88 1161.059 00:58:50.88
975 SK ŠEFČÍK Ĺubomír Šefča 02 08:58:56.70 1159.148 00:58:56.70
976 CZ FAJMON Team FT 04 08:59:22.14 1150.870 00:59:22.14
977 CZ STRUŽKA Libor Mané 08:59:23.66 1150.379 00:59:23.66
978 CZ MOTRE Vasil Vasil 09:00:02.28 1138.046 01:00:02.28
979 NL CORVO Elise 09:00:21.89 1131.884 01:00:21.89
980 CZ J.R.TEAM RS 6 09:00:24.72 1131.000 01:00:24.72
981 DE SPITZBERG Team Newsprint 09:02:13.33 1098.097 01:02:13.33
982 CZ LAŇKA Alfons Ing. Laura. 09:04:25.27 1060.614 01:04:25.27
983 AT LEICHTFRIED Walter Rose 09:07:47.18 1007.961 01:07:47.18
984 CR LEXMAN DERBY ZAGREB - reciprocity 2020 Lexilady 09:08:22.70 999.235 01:08:22.70
985 CZ KULÍK Přemysl Blesk 09:09:40.01 980.754 01:09:40.01
986 CZ KONEČNÝ Vlastimil Aramis 09:34:19.47 724.372 01:34:19.47
987 DE NAKOTT Ludwig Grand Bobby 09:34:47.94 720.746 01:34:47.94
988 DE TEAM WIBA Wilfried Schmunkamp Wido 09:35:27.64 715.750 01:35:27.64
989 DE STOCKBAUER - LÜDERS Team Rocket 09:35:34.05 714.950 01:35:34.05
990 SK ČÁNI Ĺ+M Team Ĺudko 09:36:07.35 710.822 01:36:07.35
991 CZ KULÍK Přemysl Alan 09:36:11.52 710.309 01:36:11.52
992 CZ TARVAN TEAM TARVAN Kyrill Tarvan 09:36:17.86 709.529 01:36:17.86
993 DE K.H.WICHERT Nedved 09:36:19.64 709.311 01:36:19.64
994 SK GOGORA Milan Mago 09:36:21.74 709.053 01:36:21.74
995 RO SUPER STAR OLR - reciprocity 2020 Star 6 09:36:25.81 708.554 01:36:25.81
996 CZ JANEČEK Petr Paul Heston 09:36:29.08 708.154 01:36:29.08
997 SK JASOVSKÝ Jozef + Ĺubomír Jozefka Eso 09:36:37.36 707.143 01:36:37.36
998 IT CROCETTA Gabriele R 14 09:36:40.54 706.755 01:36:40.54
999 CZ MACHALA & HNILICA Team Gapka 09:36:47.32 705.930 01:36:47.32
1000 CN CELINE SUN & SKRBEK MAREK "B" Just Do It II. 09:36:54.26 705.087 01:36:54.26
1001 BE COPPENS Peter Faither 09:36:56.96 704.760 01:36:56.96
1002 BE VAN STICHEL Dirk Bleu Bullet 09:37:20.18 701.958 01:37:20.18
1003 SK JASOVSKÝ Jozef + Ĺubomír Matejko 03 09:37:21.07 701.851 01:37:21.07
1004 SK BODNÁR & VILČKO Vladimír Body 11 09:39:04.92 689.590 01:39:04.92
1005 CZ GRUBER Simon "A" Terezka 09:39:24.94 687.276 01:39:24.94
1006 DE WOLTERINK Gerald Gerald 36 09:39:32.17 686.444 01:39:32.17
1007 CZ ČECHURA & SZERENCSÉS Team Miluna 09:41:16.08 674.705 01:41:16.08
1008 PL GALUS & KULESA TEAM Jan + Frantiszek Sara 1 09:42:10.80 668.683 01:42:10.80
1009 CZ ŠABATA Jan J.Š. 05 09:42:36.79 665.860 01:42:36.79
1010 CZ KUDELA Jaromír Ing. Kája 09:42:59.10 663.456 01:42:59.10
1011 AT STRAIF Walter Walda 09:43:03.49 662.985 01:43:03.49
1012 DE TARGATZ Angela Dr. Dr 4 09:43:28.83 660.279 01:43:28.83
1013 CZ GERSPITZER Team GT 5 09:44:17.03 655.193 01:44:17.03
1014 DE TEAM LINDENHOF Schönrade Bodo Bogart 09:45:03.36 650.377 01:45:03.36
1015 DE BEHLKE Andreas Moonlight 09:45:05.41 650.165 01:45:05.41
1016 CZ GRUBER Simon "B" Rambo+ 09:45:35.88 647.039 01:45:35.88
1017 CZ VRCHLABÍ Team Kuba 09:45:37.12 646.912 01:45:37.12
1018 CZ JANEČEK Petr Orphee Des Blins 09:47:52.88 633.344 01:47:52.88
1019 BE VAN STICHEL Dirk Black Arrow 09:48:25.82 630.137 01:48:25.82
1020 NL DOLDERSUM & Zn. Koller 09:50:05.05 620.671 01:50:05.05
1021 DE RÖHLIG & BUKOWSKI Team Pia 12 09:51:22.01 613.522 01:51:22.01
1022 CZ DUDA Rostislav Ares 09:53:36.63 601.406 01:53:36.63
1023 DE STOCKBAUER - LÜDERS Team Rolex 09:53:43.51 600.799 01:53:43.51
1024 ES WINKIE PIGEONS "B" Winkie 15 09:55:35.72 591.079 01:55:35.72
1025 DE FAMILIE JOEKEL Pascal 09:55:41.40 590.596 01:55:41.40
1026 CZ REIN Jan Phil 09:55:53.19 589.594 01:55:53.19
1027 BE VAN STICHEL Dirk Flash 09:58:29.62 576.622 01:58:29.62
1028 AT STEINER Alfred Anka 10:01:14.10 563.583 02:01:14.10
1029 PL KOZAK PRZEMYSLAW TopLofts.eu Wawa 10:01:15.79 563.452 02:01:15.79
1030 CH ALP RACE TEAM Simon Wolf Art 4 10:06:03.06 542.050 02:06:03.06
1031 AT WIEFLER Alois Karl 10:07:17.98 536.734 02:07:17.98
1032 AT RADU Constantin Falconety 10:12:05.19 517.282 02:12:05.19
1033 CN CELINE SUN & SKRBEK MAREK "C" Eminem 10:13:06.36 513.320 02:13:06.36
1034 BG SOFIA TEAM Socrat 10:14:04.09 509.636 02:14:04.09
1035 DE TEAM WIBA Wilfried Schmunkamp Widia 10:15:11.47 505.403 02:15:11.47
1036 DE TARGATZ Angela Dr. Dr 3 10:15:21.89 504.754 02:15:21.89
1037 CZ JURÁSEK BARBAR TEAM Sofie. 10:16:11.45 501.693 02:16:11.45
1038 NL LOWLANDS RACING TEAM LRT 3 10:18:42.27 492.601 02:18:42.27
1039 DE GOETZ Guenter GG 11 10:27:30.86 463.182 02:27:30.86
1040 SK BODNÁR Ĺubo LB 3 10:34:06.97 443.341 02:34:06.97
1041 CZ J.R.TEAM RS 5 10:37:37.06 433.492 02:37:37.06
1042 SK FÁBRY MUDRONČEKOVÁ Adriána Avril 10:48:14.14 406.133 02:48:14.14
1043 DE FAMILIE JOEKEL Planck 10:55:04.89 390.253 02:55:04.89
1044 DE WEIS-JUNGEFLEISCH Team Mini Jan 11:01:59.76 375.426 03:01:59.76
1045 CZ BARÁNEK Josef Tryskáč 11:07:24.20 364.593 03:07:24.20
1046 CZ SVOBODA - ČIHÁK Team Zuzka 11:07:33.37 364.296 03:07:33.37
1047 CZ ZADRAŽILOVI M+P+M Marvel 11:08:14.98 362.954 03:08:14.98
1048 CZ GROH Aleš Blue Effect 11:08:16.41 362.908 03:08:16.41
1049 CZ J.R.TEAM RS 1 11:21:22.82 339.288 03:21:22.82
1050 CZ YOUNG FLYERS Senohrábek SP 192 11:27:35.50 329.137 03:27:35.50
1051 DE SCHÜTZE Jörn Remalus 11:31:33.08 322.976 03:31:33.08
1052 CZ KOLÍNEK Jarolím st.+ ml. Jiří Z 11:52:14.64 294.199 03:52:14.64
1053 CZ GRUBER Simon "A" Conor 11:58:19.27 286.697 03:58:19.27
1054 SK LAŠ Vladimír Las 5 12:14:15.29 268.730 04:14:15.29
1055 CZ KRATOCHVÍL Dušan Petr 3 12:26:51.84 256.033 04:26:51.84
1056 SK LACIKA TEAM Dávid + Radoslav + Natália Sofia. 12:37:24.38 246.303 04:37:24.38
1057 SK BINDAS Štefan jun. Elss 13:46:24.81 197.238 05:46:24.81
1058 SK HUSÁR & PONIŠTIAK Team Kittel 13:54:30.68 192.733 05:54:30.68
1059 TH TEAM DR.TEERACHON-TEC Thailand 274 14:43:49.52 169.197 06:43:49.52
1060 AT HÖLD Erich Elias 09:32:03.58 22.989 49:32:03.58
1061 CZ ECHTNER Antonín AR 2 09:32:13.71 22.988 49:32:13.71
1062 NL LOWLANDS RACING TEAM LRT 7 11:15:00.00 3.135 363:15:00.00

Zobrazit / skrýt podrobnosti k doletu

Nedolétlí holubi

Tabulka obsahuje seznam holubů, kteří byli na tento závod nasazeni, ale zatím nedoletěli.

  Jméno chovatele Jméno holuba
CZ KUBA KUBIKULA Lída
DE TREPTE ARNDT & MARCUS Rödertalflieger Tom

DOLET_PPC_LC

Dolet mimo závod

Tabulka obsahuje seznam holubů, kteří se během čekání na tento dolet vrátili z přechozích závodů - tzn. nebyli na tento závod nasazeni.

  Jméno chovatele Jméno holuba Čas doletu
CZ KLEMENS Karel "B" James* 09:33:38
CZ KONOPÍK Jiří Luky 09:32:22
CZ LEŠŇOVSKÝ Zdeno Hurikán 09:47:53
CR LEXMAN DERBY ZAGREB - reciprocity 2020 Lexie 08:52:44
PL MAZIARZ RACING TEAM Magnum 09:33:36
DE SCHWARM Claudia Sea Cove 11:29:28
CZ STRNAD - HENNEK - STADLER Team Henryk 09:32:46
CZ SÝKORA Jaromír Syky 15:58:49
DE TARGATZ Angela Dr. Dr 12 08:55:52
DE TEAM LINDENHOF Schönrade Bodo Bogie 10:59:52
ES WINKIE PIGEONS "B" Winkie 16 08:49:46

DOLET_PPC_LC

 

Přihlásit se



Partneři